<?xml version="1.0" encoding="UTF-8" standalone="yes"?>
<gpx
 xmlns="http://www.topografix.com/GPX/1/1"
 creator="OziExplorer Version 3956f - http://www.oziexplorer.com"
 version="1.1"
 xmlns:xsi="http://www.w3.org/2001/XMLSchema-instance"
 xsi:schemaLocation="http://www.topografix.com/GPX/1/1 http://www.topografix.com/GPX/1/1/gpx.xsd">
<metadata>
 <time>2025-10-14T14:46:49Z</time>
 <bounds minlat="31.718639" minlon="35.071724" maxlat="31.753790" maxlon="35.137795"/>
</metadata>
<trk>
 <name>BarGiora-YadKennedi-singlEinKobi_41km.900m</name>
 <desc>BarGiora-YadKennedi-singlEinKobi_41km.900m</desc>
<trkseg>
<trkpt lat="31.7345930" lon="35.0717240">
<ele>692.323181</ele>
<time>2025-10-14T14:42:58.403Z</time>
</trkpt>
<trkpt lat="31.7345950" lon="35.0717320">
<ele>692.323181</ele>
<time>2025-10-14T14:42:58.654Z</time>
</trkpt>
<trkpt lat="31.7346120" lon="35.0718020">
<ele>692.323181</ele>
<time>2025-10-14T14:43:00.848Z</time>
</trkpt>
<trkpt lat="31.7344740" lon="35.0722090">
<ele>692.323181</ele>
<time>2025-10-14T14:43:15.180Z</time>
</trkpt>
<trkpt lat="31.7343720" lon="35.0724410">
<ele>692.323181</ele>
<time>2025-10-14T14:43:26.000Z</time>
</trkpt>
<trkpt lat="31.7342130" lon="35.0726880">
<ele>692.434998</ele>
<time>2025-10-14T14:43:39.529Z</time>
</trkpt>
<trkpt lat="31.7340820" lon="35.0729590">
<ele>693.496948</ele>
<time>2025-10-14T14:43:53.801Z</time>
</trkpt>
<trkpt lat="31.7338850" lon="35.0734900">
<ele>695.470581</ele>
<time>2025-10-14T14:44:21.704Z</time>
</trkpt>
<trkpt lat="31.7338010" lon="35.0738550">
<ele>696.758789</ele>
<time>2025-10-14T14:44:39.688Z</time>
</trkpt>
<trkpt lat="31.7335950" lon="35.0743750">
<ele>698.713074</ele>
<time>2025-10-14T14:45:05.328Z</time>
</trkpt>
<trkpt lat="31.7334690" lon="35.0746920">
<ele>699.470398</ele>
<time>2025-10-14T14:45:19.751Z</time>
</trkpt>
<trkpt lat="31.7332550" lon="35.0745600">
<ele>699.322693</ele>
<time>2025-10-14T14:45:36.560Z</time>
</trkpt>
<trkpt lat="31.7331720" lon="35.0747810">
<ele>699.197083</ele>
<time>2025-10-14T14:45:50.884Z</time>
</trkpt>
<trkpt lat="31.7331590" lon="35.0747550">
<ele>699.181335</ele>
<time>2025-10-14T14:45:51.432Z</time>
</trkpt>
<trkpt lat="31.7331020" lon="35.0746970">
<ele>699.135315</ele>
<time>2025-10-14T14:45:53.017Z</time>
</trkpt>
<trkpt lat="31.7330280" lon="35.0746790">
<ele>699.089111</ele>
<time>2025-10-14T14:45:54.462Z</time>
</trkpt>
<trkpt lat="31.7329580" lon="35.0747020">
<ele>699.044678</ele>
<time>2025-10-14T14:45:55.797Z</time>
</trkpt>
<trkpt lat="31.7329060" lon="35.0747610">
<ele>699.000549</ele>
<time>2025-10-14T14:45:57.077Z</time>
</trkpt>
<trkpt lat="31.7328820" lon="35.0748710">
<ele>698.941467</ele>
<time>2025-10-14T14:45:58.705Z</time>
</trkpt>
<trkpt lat="31.7329190" lon="35.0749750">
<ele>698.882874</ele>
<time>2025-10-14T14:46:00.270Z</time>
</trkpt>
<trkpt lat="31.7329780" lon="35.0750240">
<ele>698.838684</ele>
<time>2025-10-14T14:46:01.418Z</time>
</trkpt>
<trkpt lat="31.7330500" lon="35.0750360">
<ele>698.794250</ele>
<time>2025-10-14T14:46:02.539Z</time>
</trkpt>
<trkpt lat="31.7331200" lon="35.0750910">
<ele>698.742737</ele>
<time>2025-10-14T14:46:03.813Z</time>
</trkpt>
<trkpt lat="31.7331510" lon="35.0751620">
<ele>698.701294</ele>
<time>2025-10-14T14:46:04.818Z</time>
</trkpt>
<trkpt lat="31.7323190" lon="35.0762670">
<ele>695.850342</ele>
<time>2025-10-14T14:46:36.572Z</time>
</trkpt>
<trkpt lat="31.7315800" lon="35.0772430">
<ele>692.384766</ele>
<time>2025-10-14T14:47:05.444Z</time>
</trkpt>
<trkpt lat="31.7315260" lon="35.0774140">
<ele>691.988098</ele>
<time>2025-10-14T14:47:09.570Z</time>
</trkpt>
<trkpt lat="31.7313980" lon="35.0790240">
<ele>688.471985</ele>
<time>2025-10-14T14:47:46.901Z</time>
</trkpt>
<trkpt lat="31.7311610" lon="35.0803970">
<ele>681.197327</ele>
<time>2025-10-14T14:48:17.348Z</time>
</trkpt>
<trkpt lat="31.7312650" lon="35.0805740">
<ele>679.989136</ele>
<time>2025-10-14T14:48:21.451Z</time>
</trkpt>
<trkpt lat="31.7314000" lon="35.0806470">
<ele>679.008057</ele>
<time>2025-10-14T14:48:24.691Z</time>
</trkpt>
<trkpt lat="31.7317050" lon="35.0807300">
<ele>676.940918</ele>
<time>2025-10-14T14:48:31.314Z</time>
</trkpt>
<trkpt lat="31.7326470" lon="35.0808870">
<ele>667.611328</ele>
<time>2025-10-14T14:48:50.691Z</time>
</trkpt>
<trkpt lat="31.7329010" lon="35.0810040">
<ele>664.823181</ele>
<time>2025-10-14T14:48:56.398Z</time>
</trkpt>
<trkpt lat="31.7330950" lon="35.0812010">
<ele>662.203308</ele>
<time>2025-10-14T14:49:01.941Z</time>
</trkpt>
<trkpt lat="31.7332990" lon="35.0814940">
<ele>658.911743</ele>
<time>2025-10-14T14:49:09.264Z</time>
</trkpt>
<trkpt lat="31.7333220" lon="35.0816420">
<ele>657.838257</ele>
<time>2025-10-14T14:49:12.337Z</time>
</trkpt>
<trkpt lat="31.7332360" lon="35.0824360">
<ele>657.843384</ele>
<time>2025-10-14T14:49:31.418Z</time>
</trkpt>
<trkpt lat="31.7331070" lon="35.0830150">
<ele>657.847168</ele>
<time>2025-10-14T14:49:53.816Z</time>
</trkpt>
<trkpt lat="31.7326570" lon="35.0841310">
<ele>658.485779</ele>
<time>2025-10-14T14:50:39.555Z</time>
</trkpt>
<trkpt lat="31.7325500" lon="35.0847310">
<ele>659.197693</ele>
<time>2025-10-14T14:50:58.106Z</time>
</trkpt>
<trkpt lat="31.7323990" lon="35.0852250">
<ele>659.807312</ele>
<time>2025-10-14T14:51:12.890Z</time>
</trkpt>
<trkpt lat="31.7321850" lon="35.0857830">
<ele>660.939575</ele>
<time>2025-10-14T14:51:32.066Z</time>
</trkpt>
<trkpt lat="31.7318420" lon="35.0862120">
<ele>662.990845</ele>
<time>2025-10-14T14:51:55.277Z</time>
</trkpt>
<trkpt lat="31.7314770" lon="35.0866200">
<ele>665.053711</ele>
<time>2025-10-14T14:52:23.344Z</time>
</trkpt>
<trkpt lat="31.7311330" lon="35.0867490">
<ele>666.532776</ele>
<time>2025-10-14T14:52:45.194Z</time>
</trkpt>
<trkpt lat="31.7309830" lon="35.0868770">
<ele>667.291931</ele>
<time>2025-10-14T14:52:56.658Z</time>
</trkpt>
<trkpt lat="31.7307470" lon="35.0874570">
<ele>669.851624</ele>
<time>2025-10-14T14:53:30.396Z</time>
</trkpt>
<trkpt lat="31.7304680" lon="35.0879290">
<ele>672.198914</ele>
<time>2025-10-14T14:53:58.751Z</time>
</trkpt>
<trkpt lat="31.7300610" lon="35.0885510">
<ele>675.403687</ele>
<time>2025-10-14T14:54:35.052Z</time>
</trkpt>
<trkpt lat="31.7290950" lon="35.0897960">
<ele>678.326599</ele>
<time>2025-10-14T14:55:41.158Z</time>
</trkpt>
<trkpt lat="31.7288180" lon="35.0902250">
<ele>679.068726</ele>
<time>2025-10-14T14:55:54.977Z</time>
</trkpt>
<trkpt lat="31.7289950" lon="35.0902900">
<ele>678.951843</ele>
<time>2025-10-14T14:56:00.233Z</time>
</trkpt>
<trkpt lat="31.7293470" lon="35.0903380">
<ele>677.870605</ele>
<time>2025-10-14T14:56:09.940Z</time>
</trkpt>
<trkpt lat="31.7294300" lon="35.0903160">
<ele>677.610962</ele>
<time>2025-10-14T14:56:12.222Z</time>
</trkpt>
<trkpt lat="31.7295000" lon="35.0902750">
<ele>677.372375</ele>
<time>2025-10-14T14:56:14.249Z</time>
</trkpt>
<trkpt lat="31.7299640" lon="35.0898510">
<ele>675.579285</ele>
<time>2025-10-14T14:56:28.936Z</time>
</trkpt>
<trkpt lat="31.7302790" lon="35.0896840">
<ele>674.524902</ele>
<time>2025-10-14T14:56:37.685Z</time>
</trkpt>
<trkpt lat="31.7305480" lon="35.0894130">
<ele>673.298157</ele>
<time>2025-10-14T14:56:46.689Z</time>
</trkpt>
<trkpt lat="31.7307430" lon="35.0891820">
<ele>672.031677</ele>
<time>2025-10-14T14:56:53.592Z</time>
</trkpt>
<trkpt lat="31.7310940" lon="35.0888870">
<ele>670.057861</ele>
<time>2025-10-14T14:57:04.095Z</time>
</trkpt>
<trkpt lat="31.7316080" lon="35.0885830">
<ele>667.425598</ele>
<time>2025-10-14T14:57:17.803Z</time>
</trkpt>
<trkpt lat="31.7319460" lon="35.0881430">
<ele>665.129333</ele>
<time>2025-10-14T14:57:30.085Z</time>
</trkpt>
<trkpt lat="31.7320820" lon="35.0878460">
<ele>663.853149</ele>
<time>2025-10-14T14:57:37.171Z</time>
</trkpt>
<trkpt lat="31.7322380" lon="35.0876710">
<ele>662.893982</ele>
<time>2025-10-14T14:57:42.516Z</time>
</trkpt>
<trkpt lat="31.7325780" lon="35.0874350">
<ele>661.137634</ele>
<time>2025-10-14T14:57:52.309Z</time>
</trkpt>
<trkpt lat="31.7328940" lon="35.0873610">
<ele>659.704224</ele>
<time>2025-10-14T14:58:00.261Z</time>
</trkpt>
<trkpt lat="31.7331080" lon="35.0871420">
<ele>658.442200</ele>
<time>2025-10-14T14:58:07.251Z</time>
</trkpt>
<trkpt lat="31.7331390" lon="35.0870670">
<ele>658.126648</ele>
<time>2025-10-14T14:58:08.989Z</time>
</trkpt>
<trkpt lat="31.7331490" lon="35.0869410">
<ele>657.647888</ele>
<time>2025-10-14T14:58:11.634Z</time>
</trkpt>
<trkpt lat="31.7332200" lon="35.0867950">
<ele>657.014160</ele>
<time>2025-10-14T14:58:15.118Z</time>
</trkpt>
<trkpt lat="31.7335750" lon="35.0863810">
<ele>654.801453</ele>
<time>2025-10-14T14:58:27.115Z</time>
</trkpt>
<trkpt lat="31.7337650" lon="35.0860740">
<ele>653.372437</ele>
<time>2025-10-14T14:58:34.831Z</time>
</trkpt>
<trkpt lat="31.7338490" lon="35.0856620">
<ele>651.777832</ele>
<time>2025-10-14T14:58:43.491Z</time>
</trkpt>
<trkpt lat="31.7339700" lon="35.0853090">
<ele>650.345276</ele>
<time>2025-10-14T14:58:51.427Z</time>
</trkpt>
<trkpt lat="31.7343750" lon="35.0843750">
<ele>648.619751</ele>
<time>2025-10-14T14:59:15.403Z</time>
</trkpt>
<trkpt lat="31.7344700" lon="35.0841950">
<ele>648.384888</ele>
<time>2025-10-14T14:59:21.306Z</time>
</trkpt>
<trkpt lat="31.7348210" lon="35.0837120">
<ele>647.680603</ele>
<time>2025-10-14T14:59:38.492Z</time>
</trkpt>
<trkpt lat="31.7349780" lon="35.0835670">
<ele>647.420349</ele>
<time>2025-10-14T14:59:44.655Z</time>
</trkpt>
<trkpt lat="31.7351490" lon="35.0834570">
<ele>647.162781</ele>
<time>2025-10-14T14:59:50.601Z</time>
</trkpt>
<trkpt lat="31.7352400" lon="35.0833270">
<ele>646.958191</ele>
<time>2025-10-14T14:59:54.815Z</time>
</trkpt>
<trkpt lat="31.7352910" lon="35.0829120">
<ele>646.448608</ele>
<time>2025-10-14T15:00:04.902Z</time>
</trkpt>
<trkpt lat="31.7354290" lon="35.0826150">
<ele>646.037231</ele>
<time>2025-10-14T15:00:12.803Z</time>
</trkpt>
<trkpt lat="31.7354940" lon="35.0820710">
<ele>645.369568</ele>
<time>2025-10-14T15:00:25.087Z</time>
</trkpt>
<trkpt lat="31.7355670" lon="35.0818810">
<ele>645.116211</ele>
<time>2025-10-14T15:00:29.828Z</time>
</trkpt>
<trkpt lat="31.7355580" lon="35.0814590">
<ele>644.692627</ele>
<time>2025-10-14T15:00:40.190Z</time>
</trkpt>
<trkpt lat="31.7357110" lon="35.0810300">
<ele>645.882629</ele>
<time>2025-10-14T15:00:53.883Z</time>
</trkpt>
<trkpt lat="31.7358810" lon="35.0808140">
<ele>646.635498</ele>
<time>2025-10-14T15:01:04.311Z</time>
</trkpt>
<trkpt lat="31.7361310" lon="35.0806470">
<ele>647.500366</ele>
<time>2025-10-14T15:01:17.935Z</time>
</trkpt>
<trkpt lat="31.7363300" lon="35.0805490">
<ele>648.149231</ele>
<time>2025-10-14T15:01:29.241Z</time>
</trkpt>
<trkpt lat="31.7364590" lon="35.0804020">
<ele>648.689575</ele>
<time>2025-10-14T15:01:39.224Z</time>
</trkpt>
<trkpt lat="31.7365410" lon="35.0802160">
<ele>649.225464</ele>
<time>2025-10-14T15:01:49.457Z</time>
</trkpt>
<trkpt lat="31.7365900" lon="35.0801540">
<ele>649.442017</ele>
<time>2025-10-14T15:01:53.674Z</time>
</trkpt>
<trkpt lat="31.7367260" lon="35.0801020">
<ele>649.872131</ele>
<time>2025-10-14T15:02:02.174Z</time>
</trkpt>
<trkpt lat="31.7372650" lon="35.0800620">
<ele>652.653076</ele>
<time>2025-10-14T15:02:35.972Z</time>
</trkpt>
<trkpt lat="31.7373710" lon="35.0800830">
<ele>653.233459</ele>
<time>2025-10-14T15:02:42.837Z</time>
</trkpt>
<trkpt lat="31.7374990" lon="35.0801580">
<ele>654.005554</ele>
<time>2025-10-14T15:02:51.925Z</time>
</trkpt>
<trkpt lat="31.7375910" lon="35.0802820">
<ele>654.761047</ele>
<time>2025-10-14T15:03:00.776Z</time>
</trkpt>
<trkpt lat="31.7376240" lon="35.0802950">
<ele>654.949036</ele>
<time>2025-10-14T15:03:02.960Z</time>
</trkpt>
<trkpt lat="31.7376950" lon="35.0803050">
<ele>655.335083</ele>
<time>2025-10-14T15:03:07.442Z</time>
</trkpt>
<trkpt lat="31.7379780" lon="35.0802520">
<ele>656.882263</ele>
<time>2025-10-14T15:03:24.896Z</time>
</trkpt>
<trkpt lat="31.7380480" lon="35.0802650">
<ele>657.264893</ele>
<time>2025-10-14T15:03:29.052Z</time>
</trkpt>
<trkpt lat="31.7381740" lon="35.0803470">
<ele>658.042358</ele>
<time>2025-10-14T15:03:37.144Z</time>
</trkpt>
<trkpt lat="31.7382220" lon="35.0804100">
<ele>658.430786</ele>
<time>2025-10-14T15:03:40.911Z</time>
</trkpt>
<trkpt lat="31.7382730" lon="35.0806560">
<ele>659.593384</ele>
<time>2025-10-14T15:03:51.490Z</time>
</trkpt>
<trkpt lat="31.7383840" lon="35.0808200">
<ele>660.581421</ele>
<time>2025-10-14T15:04:00.159Z</time>
</trkpt>
<trkpt lat="31.7384490" lon="35.0808480">
<ele>660.967163</ele>
<time>2025-10-14T15:04:03.565Z</time>
</trkpt>
<trkpt lat="31.7385480" lon="35.0807980">
<ele>661.567505</ele>
<time>2025-10-14T15:04:09.409Z</time>
</trkpt>
<trkpt lat="31.7388980" lon="35.0805050">
<ele>663.961243</ele>
<time>2025-10-14T15:04:33.098Z</time>
</trkpt>
<trkpt lat="31.7391590" lon="35.0803630">
<ele>665.563599</ele>
<time>2025-10-14T15:04:49.528Z</time>
</trkpt>
<trkpt lat="31.7392630" lon="35.0803400">
<ele>666.153198</ele>
<time>2025-10-14T15:04:55.717Z</time>
</trkpt>
<trkpt lat="31.7392620" lon="35.0804250">
<ele>666.556030</ele>
<time>2025-10-14T15:05:00.296Z</time>
</trkpt>
<trkpt lat="31.7391940" lon="35.0805210">
<ele>667.148071</ele>
<time>2025-10-14T15:05:06.789Z</time>
</trkpt>
<trkpt lat="31.7391420" lon="35.0807220">
<ele>668.143555</ele>
<time>2025-10-14T15:05:18.260Z</time>
</trkpt>
<trkpt lat="31.7389100" lon="35.0810440">
<ele>670.098877</ele>
<time>2025-10-14T15:05:42.925Z</time>
</trkpt>
<trkpt lat="31.7387300" lon="35.0811830">
<ele>671.154480</ele>
<time>2025-10-14T15:05:58.678Z</time>
</trkpt>
<trkpt lat="31.7384560" lon="35.0815150">
<ele>673.083130</ele>
<time>2025-10-14T15:06:28.767Z</time>
</trkpt>
<trkpt lat="31.7383950" lon="35.0816200">
<ele>673.613281</ele>
<time>2025-10-14T15:06:36.184Z</time>
</trkpt>
<trkpt lat="31.7384060" lon="35.0817870">
<ele>674.311584</ele>
<time>2025-10-14T15:06:45.219Z</time>
</trkpt>
<trkpt lat="31.7385140" lon="35.0819540">
<ele>675.186218</ele>
<time>2025-10-14T15:06:55.560Z</time>
</trkpt>
<trkpt lat="31.7388660" lon="35.0821580">
<ele>677.109924</ele>
<time>2025-10-14T15:07:14.384Z</time>
</trkpt>
<trkpt lat="31.7389020" lon="35.0821570">
<ele>677.286499</ele>
<time>2025-10-14T15:07:15.860Z</time>
</trkpt>
<trkpt lat="31.7390440" lon="35.0821540">
<ele>677.982666</ele>
<time>2025-10-14T15:07:21.257Z</time>
</trkpt>
<trkpt lat="31.7393840" lon="35.0820190">
<ele>678.041687</ele>
<time>2025-10-14T15:07:32.409Z</time>
</trkpt>
<trkpt lat="31.7396310" lon="35.0820740">
<ele>677.453186</ele>
<time>2025-10-14T15:07:39.417Z</time>
</trkpt>
<trkpt lat="31.7398590" lon="35.0819530">
<ele>676.867615</ele>
<time>2025-10-14T15:07:46.081Z</time>
</trkpt>
<trkpt lat="31.7403070" lon="35.0818010">
<ele>675.776123</ele>
<time>2025-10-14T15:07:58.086Z</time>
</trkpt>
<trkpt lat="31.7406110" lon="35.0815760">
<ele>674.935242</ele>
<time>2025-10-14T15:08:07.226Z</time>
</trkpt>
<trkpt lat="31.7408730" lon="35.0812280">
<ele>673.629822</ele>
<time>2025-10-14T15:08:17.181Z</time>
</trkpt>
<trkpt lat="31.7409960" lon="35.0811440">
<ele>672.955322</ele>
<time>2025-10-14T15:08:20.744Z</time>
</trkpt>
<trkpt lat="31.7413850" lon="35.0810700">
<ele>671.086853</ele>
<time>2025-10-14T15:08:30.355Z</time>
</trkpt>
<trkpt lat="31.7414900" lon="35.0810910">
<ele>670.581787</ele>
<time>2025-10-14T15:08:32.890Z</time>
</trkpt>
<trkpt lat="31.7415450" lon="35.0811440">
<ele>670.244629</ele>
<time>2025-10-14T15:08:34.563Z</time>
</trkpt>
<trkpt lat="31.7415110" lon="35.0812130">
<ele>669.923035</ele>
<time>2025-10-14T15:08:36.178Z</time>
</trkpt>
<trkpt lat="31.7412600" lon="35.0814540">
<ele>668.386536</ele>
<time>2025-10-14T15:08:43.867Z</time>
</trkpt>
<trkpt lat="31.7411930" lon="35.0816010">
<ele>667.713989</ele>
<time>2025-10-14T15:08:47.244Z</time>
</trkpt>
<trkpt lat="31.7411940" lon="35.0816840">
<ele>667.379272</ele>
<time>2025-10-14T15:08:48.921Z</time>
</trkpt>
<trkpt lat="31.7412170" lon="35.0817170">
<ele>667.207214</ele>
<time>2025-10-14T15:08:49.792Z</time>
</trkpt>
<trkpt lat="31.7414230" lon="35.0817270">
<ele>666.229553</ele>
<time>2025-10-14T15:08:54.744Z</time>
</trkpt>
<trkpt lat="31.7414570" lon="35.0817980">
<ele>665.901001</ele>
<time>2025-10-14T15:08:56.402Z</time>
</trkpt>
<trkpt lat="31.7414330" lon="35.0818750">
<ele>665.721619</ele>
<time>2025-10-14T15:08:58.096Z</time>
</trkpt>
<trkpt lat="31.7411930" lon="35.0821310">
<ele>665.009888</ele>
<time>2025-10-14T15:09:06.034Z</time>
</trkpt>
<trkpt lat="31.7408620" lon="35.0825760">
<ele>663.905579</ele>
<time>2025-10-14T15:09:18.731Z</time>
</trkpt>
<trkpt lat="31.7402860" lon="35.0832080">
<ele>662.175232</ele>
<time>2025-10-14T15:09:41.873Z</time>
</trkpt>
<trkpt lat="31.7400900" lon="35.0833930">
<ele>662.282166</ele>
<time>2025-10-14T15:09:50.966Z</time>
</trkpt>
<trkpt lat="31.7396890" lon="35.0836720">
<ele>663.681335</ele>
<time>2025-10-14T15:10:10.357Z</time>
</trkpt>
<trkpt lat="31.7394500" lon="35.0837680">
<ele>664.439758</ele>
<time>2025-10-14T15:10:22.157Z</time>
</trkpt>
<trkpt lat="31.7388840" lon="35.0838740">
<ele>666.160706</ele>
<time>2025-10-14T15:10:51.835Z</time>
</trkpt>
<trkpt lat="31.7385560" lon="35.0840460">
<ele>667.239197</ele>
<time>2025-10-14T15:11:11.736Z</time>
</trkpt>
<trkpt lat="31.7383840" lon="35.0841010">
<ele>667.799622</ele>
<time>2025-10-14T15:11:21.753Z</time>
</trkpt>
<trkpt lat="31.7381480" lon="35.0842900">
<ele>668.702820</ele>
<time>2025-10-14T15:11:37.583Z</time>
</trkpt>
<trkpt lat="31.7376610" lon="35.0845530">
<ele>670.398010</ele>
<time>2025-10-14T15:12:05.026Z</time>
</trkpt>
<trkpt lat="31.7374310" lon="35.0848200">
<ele>671.420349</ele>
<time>2025-10-14T15:12:19.899Z</time>
</trkpt>
<trkpt lat="31.7372620" lon="35.0849780">
<ele>672.103333</ele>
<time>2025-10-14T15:12:29.119Z</time>
</trkpt>
<trkpt lat="31.7369660" lon="35.0851300">
<ele>673.025269</ele>
<time>2025-10-14T15:12:41.751Z</time>
</trkpt>
<trkpt lat="31.7368130" lon="35.0852390">
<ele>673.166504</ele>
<time>2025-10-14T15:12:48.289Z</time>
</trkpt>
<trkpt lat="31.7364910" lon="35.0856390">
<ele>673.536194</ele>
<time>2025-10-14T15:13:04.133Z</time>
</trkpt>
<trkpt lat="31.7363590" lon="35.0857820">
<ele>673.677856</ele>
<time>2025-10-14T15:13:09.895Z</time>
</trkpt>
<trkpt lat="31.7362060" lon="35.0858830">
<ele>673.816406</ele>
<time>2025-10-14T15:13:15.473Z</time>
</trkpt>
<trkpt lat="31.7359760" lon="35.0861520">
<ele>674.072510</ele>
<time>2025-10-14T15:13:25.999Z</time>
</trkpt>
<trkpt lat="31.7358650" lon="35.0863190">
<ele>674.214783</ele>
<time>2025-10-14T15:13:32.104Z</time>
</trkpt>
<trkpt lat="31.7355090" lon="35.0870050">
<ele>676.089478</ele>
<time>2025-10-14T15:13:58.476Z</time>
</trkpt>
<trkpt lat="31.7353960" lon="35.0871100">
<ele>676.646484</ele>
<time>2025-10-14T15:14:04.967Z</time>
</trkpt>
<trkpt lat="31.7351750" lon="35.0872520">
<ele>677.620483</ele>
<time>2025-10-14T15:14:17.214Z</time>
</trkpt>
<trkpt lat="31.7349790" lon="35.0875000">
<ele>678.734009</ele>
<time>2025-10-14T15:14:32.547Z</time>
</trkpt>
<trkpt lat="31.7348490" lon="35.0875610">
<ele>679.275330</ele>
<time>2025-10-14T15:14:40.456Z</time>
</trkpt>
<trkpt lat="31.7348300" lon="35.0877110">
<ele>679.774109</ele>
<time>2025-10-14T15:14:47.975Z</time>
</trkpt>
<trkpt lat="31.7345320" lon="35.0884760">
<ele>683.056824</ele>
<time>2025-10-14T15:15:33.517Z</time>
</trkpt>
<trkpt lat="31.7343820" lon="35.0887980">
<ele>684.794312</ele>
<time>2025-10-14T15:15:54.056Z</time>
</trkpt>
<trkpt lat="31.7342980" lon="35.0891770">
<ele>686.647827</ele>
<time>2025-10-14T15:16:15.686Z</time>
</trkpt>
<trkpt lat="31.7342210" lon="35.0894070">
<ele>687.817505</ele>
<time>2025-10-14T15:16:28.968Z</time>
</trkpt>
<trkpt lat="31.7340330" lon="35.0897060">
<ele>689.577271</ele>
<time>2025-10-14T15:16:48.346Z</time>
</trkpt>
<trkpt lat="31.7335180" lon="35.0908490">
<ele>691.964111</ele>
<time>2025-10-14T15:17:40.008Z</time>
</trkpt>
<trkpt lat="31.7334830" lon="35.0910180">
<ele>692.075989</ele>
<time>2025-10-14T15:17:44.798Z</time>
</trkpt>
<trkpt lat="31.7333800" lon="35.0920240">
<ele>692.728149</ele>
<time>2025-10-14T15:18:09.493Z</time>
</trkpt>
<trkpt lat="31.7332580" lon="35.0925140">
<ele>692.292175</ele>
<time>2025-10-14T15:18:21.173Z</time>
</trkpt>
<trkpt lat="31.7328080" lon="35.0934430">
<ele>691.333191</ele>
<time>2025-10-14T15:18:47.959Z</time>
</trkpt>
<trkpt lat="31.7324830" lon="35.0941930">
<ele>690.130554</ele>
<time>2025-10-14T15:19:10.418Z</time>
</trkpt>
<trkpt lat="31.7321840" lon="35.0950090">
<ele>687.973389</ele>
<time>2025-10-14T15:19:31.047Z</time>
</trkpt>
<trkpt lat="31.7320510" lon="35.0955760">
<ele>686.545471</ele>
<time>2025-10-14T15:19:43.368Z</time>
</trkpt>
<trkpt lat="31.7320160" lon="35.0958120">
<ele>685.963867</ele>
<time>2025-10-14T15:19:48.239Z</time>
</trkpt>
<trkpt lat="31.7318760" lon="35.0961490">
<ele>685.099548</ele>
<time>2025-10-14T15:19:55.865Z</time>
</trkpt>
<trkpt lat="31.7317550" lon="35.0963520">
<ele>684.540405</ele>
<time>2025-10-14T15:20:00.988Z</time>
</trkpt>
<trkpt lat="31.7314750" lon="35.0965940">
<ele>683.618713</ele>
<time>2025-10-14T15:20:09.797Z</time>
</trkpt>
<trkpt lat="31.7312670" lon="35.0966890">
<ele>683.026855</ele>
<time>2025-10-14T15:20:15.791Z</time>
</trkpt>
<trkpt lat="31.7310540" lon="35.0967960">
<ele>682.412598</ele>
<time>2025-10-14T15:20:22.560Z</time>
</trkpt>
<trkpt lat="31.7302270" lon="35.0970870">
<ele>679.497009</ele>
<time>2025-10-14T15:20:48.937Z</time>
</trkpt>
<trkpt lat="31.7300180" lon="35.0972450">
<ele>678.330261</ele>
<time>2025-10-14T15:20:55.331Z</time>
</trkpt>
<trkpt lat="31.7299470" lon="35.0973790">
<ele>677.699707</ele>
<time>2025-10-14T15:20:58.630Z</time>
</trkpt>
<trkpt lat="31.7299000" lon="35.0975040">
<ele>677.153931</ele>
<time>2025-10-14T15:21:01.427Z</time>
</trkpt>
<trkpt lat="31.7300500" lon="35.0978380">
<ele>675.645508</ele>
<time>2025-10-14T15:21:08.709Z</time>
</trkpt>
<trkpt lat="31.7308980" lon="35.0986640">
<ele>672.333679</ele>
<time>2025-10-14T15:21:33.807Z</time>
</trkpt>
<trkpt lat="31.7311920" lon="35.0989360">
<ele>672.197266</ele>
<time>2025-10-14T15:21:44.761Z</time>
</trkpt>
<trkpt lat="31.7315040" lon="35.0992820">
<ele>672.040833</ele>
<time>2025-10-14T15:22:01.926Z</time>
</trkpt>
<trkpt lat="31.7318530" lon="35.0996040">
<ele>671.878967</ele>
<time>2025-10-14T15:22:25.689Z</time>
</trkpt>
<trkpt lat="31.7319810" lon="35.0991890">
<ele>672.130493</ele>
<time>2025-10-14T15:22:46.238Z</time>
</trkpt>
<trkpt lat="31.7323250" lon="35.0985270">
<ele>672.904175</ele>
<time>2025-10-14T15:23:15.322Z</time>
</trkpt>
<trkpt lat="31.7331710" lon="35.0978740">
<ele>673.349854</ele>
<time>2025-10-14T15:23:46.211Z</time>
</trkpt>
<trkpt lat="31.7337850" lon="35.0972520">
<ele>669.527710</ele>
<time>2025-10-14T15:24:07.532Z</time>
</trkpt>
<trkpt lat="31.7339390" lon="35.0970510">
<ele>668.442627</ele>
<time>2025-10-14T15:24:12.986Z</time>
</trkpt>
<trkpt lat="31.7339810" lon="35.0969950">
<ele>668.143188</ele>
<time>2025-10-14T15:24:14.444Z</time>
</trkpt>
<trkpt lat="31.7342170" lon="35.0966060">
<ele>666.226624</ele>
<time>2025-10-14T15:24:23.499Z</time>
</trkpt>
<trkpt lat="31.7344930" lon="35.0962220">
<ele>663.335266</ele>
<time>2025-10-14T15:24:32.880Z</time>
</trkpt>
<trkpt lat="31.7347100" lon="35.0957230">
<ele>659.515320</ele>
<time>2025-10-14T15:24:43.278Z</time>
</trkpt>
<trkpt lat="31.7348400" lon="35.0955440">
<ele>657.910950</ele>
<time>2025-10-14T15:24:47.648Z</time>
</trkpt>
<trkpt lat="31.7350520" lon="35.0954210">
<ele>656.016357</ele>
<time>2025-10-14T15:24:52.871Z</time>
</trkpt>
<trkpt lat="31.7351740" lon="35.0953180">
<ele>654.812744</ele>
<time>2025-10-14T15:24:56.236Z</time>
</trkpt>
<trkpt lat="31.7358090" lon="35.0949580">
<ele>649.217957</ele>
<time>2025-10-14T15:25:12.507Z</time>
</trkpt>
<trkpt lat="31.7359540" lon="35.0949110">
<ele>648.047668</ele>
<time>2025-10-14T15:25:15.964Z</time>
</trkpt>
<trkpt lat="31.7360390" lon="35.0949270">
<ele>647.377930</ele>
<time>2025-10-14T15:25:17.917Z</time>
</trkpt>
<trkpt lat="31.7361520" lon="35.0950080">
<ele>646.348206</ele>
<time>2025-10-14T15:25:20.909Z</time>
</trkpt>
<trkpt lat="31.7362410" lon="35.0951530">
<ele>645.164917</ele>
<time>2025-10-14T15:25:24.343Z</time>
</trkpt>
<trkpt lat="31.7363090" lon="35.0951780">
<ele>644.610535</ele>
<time>2025-10-14T15:25:25.960Z</time>
</trkpt>
<trkpt lat="31.7363450" lon="35.0950660">
<ele>643.818237</ele>
<time>2025-10-14T15:25:28.218Z</time>
</trkpt>
<trkpt lat="31.7363200" lon="35.0949020">
<ele>642.715759</ele>
<time>2025-10-14T15:25:31.370Z</time>
</trkpt>
<trkpt lat="31.7362270" lon="35.0947020">
<ele>641.207397</ele>
<time>2025-10-14T15:25:35.661Z</time>
</trkpt>
<trkpt lat="31.7361600" lon="35.0946190">
<ele>640.450134</ele>
<time>2025-10-14T15:25:37.806Z</time>
</trkpt>
<trkpt lat="31.7359970" lon="35.0944930">
<ele>638.932373</ele>
<time>2025-10-14T15:25:42.114Z</time>
</trkpt>
<trkpt lat="31.7359740" lon="35.0944030">
<ele>638.310486</ele>
<time>2025-10-14T15:25:43.875Z</time>
</trkpt>
<trkpt lat="31.7360040" lon="35.0943540">
<ele>637.910950</ele>
<time>2025-10-14T15:25:45.000Z</time>
</trkpt>
<trkpt lat="31.7360680" lon="35.0943250">
<ele>637.377258</ele>
<time>2025-10-14T15:25:46.507Z</time>
</trkpt>
<trkpt lat="31.7362160" lon="35.0943450">
<ele>636.233215</ele>
<time>2025-10-14T15:25:49.729Z</time>
</trkpt>
<trkpt lat="31.7363700" lon="35.0945060">
<ele>634.658691</ele>
<time>2025-10-14T15:25:54.170Z</time>
</trkpt>
<trkpt lat="31.7364340" lon="35.0945370">
<ele>634.129944</ele>
<time>2025-10-14T15:25:55.685Z</time>
</trkpt>
<trkpt lat="31.7364770" lon="35.0944850">
<ele>633.658569</ele>
<time>2025-10-14T15:25:57.037Z</time>
</trkpt>
<trkpt lat="31.7364700" lon="35.0944080">
<ele>633.155396</ele>
<time>2025-10-14T15:25:58.491Z</time>
</trkpt>
<trkpt lat="31.7364020" lon="35.0942920">
<ele>632.239929</ele>
<time>2025-10-14T15:26:01.168Z</time>
</trkpt>
<trkpt lat="31.7362730" lon="35.0941980">
<ele>631.080383</ele>
<time>2025-10-14T15:26:04.612Z</time>
</trkpt>
<trkpt lat="31.7362320" lon="35.0941120">
<ele>630.439758</ele>
<time>2025-10-14T15:26:06.516Z</time>
</trkpt>
<trkpt lat="31.7362780" lon="35.0940350">
<ele>629.828247</ele>
<time>2025-10-14T15:26:08.329Z</time>
</trkpt>
<trkpt lat="31.7364240" lon="35.0939660">
<ele>628.626038</ele>
<time>2025-10-14T15:26:11.887Z</time>
</trkpt>
<trkpt lat="31.7365590" lon="35.0939750">
<ele>627.592957</ele>
<time>2025-10-14T15:26:14.927Z</time>
</trkpt>
<trkpt lat="31.7366220" lon="35.0940210">
<ele>627.026367</ele>
<time>2025-10-14T15:26:16.594Z</time>
</trkpt>
<trkpt lat="31.7366500" lon="35.0940910">
<ele>626.523682</ele>
<time>2025-10-14T15:26:18.059Z</time>
</trkpt>
<trkpt lat="31.7366460" lon="35.0943580">
<ele>624.788452</ele>
<time>2025-10-14T15:26:23.136Z</time>
</trkpt>
<trkpt lat="31.7366840" lon="35.0943970">
<ele>624.403015</ele>
<time>2025-10-14T15:26:24.286Z</time>
</trkpt>
<trkpt lat="31.7367420" lon="35.0943780">
<ele>623.943054</ele>
<time>2025-10-14T15:26:25.660Z</time>
</trkpt>
<trkpt lat="31.7367780" lon="35.0943140">
<ele>623.444458</ele>
<time>2025-10-14T15:26:27.183Z</time>
</trkpt>
<trkpt lat="31.7368630" lon="35.0939440">
<ele>621.412720</ele>
<time>2025-10-14T15:26:34.911Z</time>
</trkpt>
<trkpt lat="31.7368430" lon="35.0937410">
<ele>620.343445</ele>
<time>2025-10-14T15:26:39.039Z</time>
</trkpt>
<trkpt lat="31.7367870" lon="35.0936220">
<ele>619.631775</ele>
<time>2025-10-14T15:26:41.819Z</time>
</trkpt>
<trkpt lat="31.7367740" lon="35.0935330">
<ele>619.159241</ele>
<time>2025-10-14T15:26:43.642Z</time>
</trkpt>
<trkpt lat="31.7367950" lon="35.0934610">
<ele>618.760986</ele>
<time>2025-10-14T15:26:45.201Z</time>
</trkpt>
<trkpt lat="31.7368520" lon="35.0934200">
<ele>618.349915</ele>
<time>2025-10-14T15:26:46.776Z</time>
</trkpt>
<trkpt lat="31.7369000" lon="35.0934130">
<ele>618.052307</ele>
<time>2025-10-14T15:26:47.925Z</time>
</trkpt>
<trkpt lat="31.7369440" lon="35.0934380">
<ele>617.751648</ele>
<time>2025-10-14T15:26:49.103Z</time>
</trkpt>
<trkpt lat="31.7369800" lon="35.0935020">
<ele>617.350159</ele>
<time>2025-10-14T15:26:50.625Z</time>
</trkpt>
<trkpt lat="31.7369850" lon="35.0937980">
<ele>615.801025</ele>
<time>2025-10-14T15:26:56.492Z</time>
</trkpt>
<trkpt lat="31.7369400" lon="35.0940790">
<ele>614.304871</ele>
<time>2025-10-14T15:27:02.031Z</time>
</trkpt>
<trkpt lat="31.7369420" lon="35.0941640">
<ele>613.859924</ele>
<time>2025-10-14T15:27:03.686Z</time>
</trkpt>
<trkpt lat="31.7369770" lon="35.0942150">
<ele>613.517029</ele>
<time>2025-10-14T15:27:04.951Z</time>
</trkpt>
<trkpt lat="31.7370320" lon="35.0941990">
<ele>613.168396</ele>
<time>2025-10-14T15:27:06.254Z</time>
</trkpt>
<trkpt lat="31.7371330" lon="35.0939380">
<ele>611.679260</ele>
<time>2025-10-14T15:27:11.883Z</time>
</trkpt>
<trkpt lat="31.7372360" lon="35.0937830">
<ele>610.670044</ele>
<time>2025-10-14T15:27:15.822Z</time>
</trkpt>
<trkpt lat="31.7376120" lon="35.0934140">
<ele>607.715698</ele>
<time>2025-10-14T15:27:27.058Z</time>
</trkpt>
<trkpt lat="31.7377890" lon="35.0932770">
<ele>606.437378</ele>
<time>2025-10-14T15:27:31.908Z</time>
</trkpt>
<trkpt lat="31.7378950" lon="35.0931550">
<ele>605.542603</ele>
<time>2025-10-14T15:27:35.313Z</time>
</trkpt>
<trkpt lat="31.7379300" lon="35.0931310">
<ele>605.298157</ele>
<time>2025-10-14T15:27:36.235Z</time>
</trkpt>
<trkpt lat="31.7379760" lon="35.0931400">
<ele>605.016846</ele>
<time>2025-10-14T15:27:37.297Z</time>
</trkpt>
<trkpt lat="31.7379740" lon="35.0932490">
<ele>604.457520</ele>
<time>2025-10-14T15:27:39.396Z</time>
</trkpt>
<trkpt lat="31.7376200" lon="35.0939070">
<ele>601.026733</ele>
<time>2025-10-14T15:27:55.149Z</time>
</trkpt>
<trkpt lat="31.7375730" lon="35.0941260">
<ele>600.570129</ele>
<time>2025-10-14T15:28:00.110Z</time>
</trkpt>
<trkpt lat="31.7377090" lon="35.0939790">
<ele>600.131042</ele>
<time>2025-10-14T15:28:05.018Z</time>
</trkpt>
<trkpt lat="31.7378680" lon="35.0936520">
<ele>599.369690</ele>
<time>2025-10-14T15:28:13.874Z</time>
</trkpt>
<trkpt lat="31.7381280" lon="35.0932570">
<ele>598.360046</ele>
<time>2025-10-14T15:28:25.781Z</time>
</trkpt>
<trkpt lat="31.7387310" lon="35.0925480">
<ele>596.005615</ele>
<time>2025-10-14T15:28:50.553Z</time>
</trkpt>
<trkpt lat="31.7388590" lon="35.0924330">
<ele>595.462952</ele>
<time>2025-10-14T15:28:55.259Z</time>
</trkpt>
<trkpt lat="31.7393630" lon="35.0920770">
<ele>593.482300</ele>
<time>2025-10-14T15:29:11.331Z</time>
</trkpt>
<trkpt lat="31.7396780" lon="35.0918910">
<ele>592.294800</ele>
<time>2025-10-14T15:29:20.077Z</time>
</trkpt>
<trkpt lat="31.7400700" lon="35.0916020">
<ele>590.206726</ele>
<time>2025-10-14T15:29:30.861Z</time>
</trkpt>
<trkpt lat="31.7402180" lon="35.0915400">
<ele>588.809448</ele>
<time>2025-10-14T15:29:34.406Z</time>
</trkpt>
<trkpt lat="31.7410720" lon="35.0913850">
<ele>581.124146</ele>
<time>2025-10-14T15:29:53.197Z</time>
</trkpt>
<trkpt lat="31.7414110" lon="35.0912710">
<ele>577.988281</ele>
<time>2025-10-14T15:30:00.729Z</time>
</trkpt>
<trkpt lat="31.7417380" lon="35.0912520">
<ele>575.076477</ele>
<time>2025-10-14T15:30:07.682Z</time>
</trkpt>
<trkpt lat="31.7421150" lon="35.0911840">
<ele>572.428711</ele>
<time>2025-10-14T15:30:15.896Z</time>
</trkpt>
<trkpt lat="31.7422390" lon="35.0911270">
<ele>571.505554</ele>
<time>2025-10-14T15:30:18.804Z</time>
</trkpt>
<trkpt lat="31.7424350" lon="35.0909740">
<ele>569.874390</ele>
<time>2025-10-14T15:30:24.033Z</time>
</trkpt>
<trkpt lat="31.7424950" lon="35.0909790">
<ele>569.457336</ele>
<time>2025-10-14T15:30:25.378Z</time>
</trkpt>
<trkpt lat="31.7425220" lon="35.0910160">
<ele>569.169861</ele>
<time>2025-10-14T15:30:26.316Z</time>
</trkpt>
<trkpt lat="31.7425250" lon="35.0911010">
<ele>568.668213</ele>
<time>2025-10-14T15:30:27.967Z</time>
</trkpt>
<trkpt lat="31.7424620" lon="35.0912370">
<ele>567.755066</ele>
<time>2025-10-14T15:30:30.999Z</time>
</trkpt>
<trkpt lat="31.7422750" lon="35.0914280">
<ele>566.037598</ele>
<time>2025-10-14T15:30:36.794Z</time>
</trkpt>
<trkpt lat="31.7419760" lon="35.0915630">
<ele>563.816833</ele>
<time>2025-10-14T15:30:44.573Z</time>
</trkpt>
<trkpt lat="31.7414370" lon="35.0918610">
<ele>561.598755</ele>
<time>2025-10-14T15:30:59.939Z</time>
</trkpt>
<trkpt lat="31.7410700" lon="35.0920100">
<ele>560.678833</ele>
<time>2025-10-14T15:31:10.282Z</time>
</trkpt>
<trkpt lat="31.7407730" lon="35.0922510">
<ele>559.823975</ele>
<time>2025-10-14T15:31:20.002Z</time>
</trkpt>
<trkpt lat="31.7405380" lon="35.0923780">
<ele>559.211243</ele>
<time>2025-10-14T15:31:27.161Z</time>
</trkpt>
<trkpt lat="31.7403990" lon="35.0925420">
<ele>558.744690</ele>
<time>2025-10-14T15:31:32.620Z</time>
</trkpt>
<trkpt lat="31.7401200" lon="35.0927850">
<ele>558.518555</ele>
<time>2025-10-14T15:31:42.520Z</time>
</trkpt>
<trkpt lat="31.7392900" lon="35.0933820">
<ele>559.587036</ele>
<time>2025-10-14T15:32:13.894Z</time>
</trkpt>
<trkpt lat="31.7391650" lon="35.0934990">
<ele>559.762451</ele>
<time>2025-10-14T15:32:20.880Z</time>
</trkpt>
<trkpt lat="31.7389800" lon="35.0937230">
<ele>560.054077</ele>
<time>2025-10-14T15:32:33.276Z</time>
</trkpt>
<trkpt lat="31.7384010" lon="35.0946190">
<ele>563.574219</ele>
<time>2025-10-14T15:33:24.532Z</time>
</trkpt>
<trkpt lat="31.7381070" lon="35.0949350">
<ele>565.361389</ele>
<time>2025-10-14T15:33:46.620Z</time>
</trkpt>
<trkpt lat="31.7380680" lon="35.0950160">
<ele>565.716553</ele>
<time>2025-10-14T15:33:50.990Z</time>
</trkpt>
<trkpt lat="31.7380520" lon="35.0951370">
<ele>566.183838</ele>
<time>2025-10-14T15:33:56.749Z</time>
</trkpt>
<trkpt lat="31.7381470" lon="35.0954140">
<ele>567.323486</ele>
<time>2025-10-14T15:34:10.976Z</time>
</trkpt>
<trkpt lat="31.7381770" lon="35.0955860">
<ele>567.993469</ele>
<time>2025-10-14T15:34:19.345Z</time>
</trkpt>
<trkpt lat="31.7381790" lon="35.0960080">
<ele>569.947083</ele>
<time>2025-10-14T15:34:39.456Z</time>
</trkpt>
<trkpt lat="31.7382150" lon="35.0964410">
<ele>572.070984</ele>
<time>2025-10-14T15:35:00.131Z</time>
</trkpt>
<trkpt lat="31.7381570" lon="35.0972220">
<ele>575.898193</ele>
<time>2025-10-14T15:35:40.470Z</time>
</trkpt>
<trkpt lat="31.7381810" lon="35.0973840">
<ele>576.700928</ele>
<time>2025-10-14T15:35:50.090Z</time>
</trkpt>
<trkpt lat="31.7382880" lon="35.0977360">
<ele>578.525757</ele>
<time>2025-10-14T15:36:12.429Z</time>
</trkpt>
<trkpt lat="31.7383250" lon="35.0979810">
<ele>579.243042</ele>
<time>2025-10-14T15:36:26.724Z</time>
</trkpt>
<trkpt lat="31.7383140" lon="35.0982010">
<ele>579.804871</ele>
<time>2025-10-14T15:36:38.490Z</time>
</trkpt>
<trkpt lat="31.7382400" lon="35.0986480">
<ele>580.965820</ele>
<time>2025-10-14T15:37:00.395Z</time>
</trkpt>
<trkpt lat="31.7382430" lon="35.0987920">
<ele>581.333008</ele>
<time>2025-10-14T15:37:06.653Z</time>
</trkpt>
<trkpt lat="31.7382790" lon="35.0989090">
<ele>581.650208</ele>
<time>2025-10-14T15:37:11.802Z</time>
</trkpt>
<trkpt lat="31.7383450" lon="35.0990190">
<ele>581.993408</ele>
<time>2025-10-14T15:37:17.150Z</time>
</trkpt>
<trkpt lat="31.7390360" lon="35.0998120">
<ele>583.322632</ele>
<time>2025-10-14T15:37:47.989Z</time>
</trkpt>
<trkpt lat="31.7391080" lon="35.0999780">
<ele>582.864563</ele>
<time>2025-10-14T15:37:52.093Z</time>
</trkpt>
<trkpt lat="31.7392160" lon="35.1004220">
<ele>581.729309</ele>
<time>2025-10-14T15:38:02.052Z</time>
</trkpt>
<trkpt lat="31.7393130" lon="35.1005410">
<ele>581.324158</ele>
<time>2025-10-14T15:38:05.591Z</time>
</trkpt>
<trkpt lat="31.7395460" lon="35.1007140">
<ele>580.527649</ele>
<time>2025-10-14T15:38:12.539Z</time>
</trkpt>
<trkpt lat="31.7398340" lon="35.1010440">
<ele>579.365356</ele>
<time>2025-10-14T15:38:22.649Z</time>
</trkpt>
<trkpt lat="31.7400870" lon="35.1015100">
<ele>578.451660</ele>
<time>2025-10-14T15:38:34.366Z</time>
</trkpt>
<trkpt lat="31.7401760" lon="35.1016260">
<ele>578.260742</ele>
<time>2025-10-14T15:38:37.697Z</time>
</trkpt>
<trkpt lat="31.7405090" lon="35.1018900">
<ele>577.683594</ele>
<time>2025-10-14T15:38:48.140Z</time>
</trkpt>
<trkpt lat="31.7405910" lon="35.1019860">
<ele>577.517334</ele>
<time>2025-10-14T15:38:51.306Z</time>
</trkpt>
<trkpt lat="31.7407280" lon="35.1022300">
<ele>577.159973</ele>
<time>2025-10-14T15:38:58.469Z</time>
</trkpt>
<trkpt lat="31.7408550" lon="35.1025640">
<ele>576.712830</ele>
<time>2025-10-14T15:39:08.475Z</time>
</trkpt>
<trkpt lat="31.7408850" lon="35.1029030">
<ele>576.325745</ele>
<time>2025-10-14T15:39:19.653Z</time>
</trkpt>
<trkpt lat="31.7408440" lon="35.1031570">
<ele>576.855652</ele>
<time>2025-10-14T15:39:29.287Z</time>
</trkpt>
<trkpt lat="31.7407720" lon="35.1033460">
<ele>577.280151</ele>
<time>2025-10-14T15:39:37.724Z</time>
</trkpt>
<trkpt lat="31.7402350" lon="35.1044550">
<ele>579.895935</ele>
<time>2025-10-14T15:40:30.716Z</time>
</trkpt>
<trkpt lat="31.7398300" lon="35.1051750">
<ele>580.285156</ele>
<time>2025-10-14T15:40:59.184Z</time>
</trkpt>
<trkpt lat="31.7391410" lon="35.1062900">
<ele>579.298889</ele>
<time>2025-10-14T15:41:32.267Z</time>
</trkpt>
<trkpt lat="31.7390360" lon="35.1065530">
<ele>578.998413</ele>
<time>2025-10-14T15:41:38.823Z</time>
</trkpt>
<trkpt lat="31.7389070" lon="35.1071090">
<ele>577.578186</ele>
<time>2025-10-14T15:41:51.834Z</time>
</trkpt>
<trkpt lat="31.7388380" lon="35.1072420">
<ele>577.194275</ele>
<time>2025-10-14T15:41:55.299Z</time>
</trkpt>
<trkpt lat="31.7385330" lon="35.1075280">
<ele>576.063904</ele>
<time>2025-10-14T15:42:05.372Z</time>
</trkpt>
<trkpt lat="31.7383170" lon="35.1079480">
<ele>574.854370</ele>
<time>2025-10-14T15:42:16.050Z</time>
</trkpt>
<trkpt lat="31.7379540" lon="35.1084760">
<ele>573.694519</ele>
<time>2025-10-14T15:42:30.889Z</time>
</trkpt>
<trkpt lat="31.7377300" lon="35.1087370">
<ele>573.418091</ele>
<time>2025-10-14T15:42:39.198Z</time>
</trkpt>
<trkpt lat="31.7373950" lon="35.1090110">
<ele>573.060364</ele>
<time>2025-10-14T15:42:50.393Z</time>
</trkpt>
<trkpt lat="31.7371460" lon="35.1091500">
<ele>572.818726</ele>
<time>2025-10-14T15:42:58.563Z</time>
</trkpt>
<trkpt lat="31.7368720" lon="35.1092660">
<ele>572.563477</ele>
<time>2025-10-14T15:43:08.474Z</time>
</trkpt>
<trkpt lat="31.7362880" lon="35.1093790">
<ele>573.190063</ele>
<time>2025-10-14T15:43:35.170Z</time>
</trkpt>
<trkpt lat="31.7355680" lon="35.1093730">
<ele>575.002808</ele>
<time>2025-10-14T15:44:13.650Z</time>
</trkpt>
<trkpt lat="31.7353800" lon="35.1094830">
<ele>575.531555</ele>
<time>2025-10-14T15:44:24.022Z</time>
</trkpt>
<trkpt lat="31.7350380" lon="35.1098470">
<ele>576.692932</ele>
<time>2025-10-14T15:44:43.811Z</time>
</trkpt>
<trkpt lat="31.7350050" lon="35.1100010">
<ele>576.669189</ele>
<time>2025-10-14T15:44:48.686Z</time>
</trkpt>
<trkpt lat="31.7350160" lon="35.1100660">
<ele>576.496521</ele>
<time>2025-10-14T15:44:50.611Z</time>
</trkpt>
<trkpt lat="31.7351090" lon="35.1101510">
<ele>576.135742</ele>
<time>2025-10-14T15:44:54.396Z</time>
</trkpt>
<trkpt lat="31.7361710" lon="35.1103520">
<ele>572.841064</ele>
<time>2025-10-14T15:45:22.219Z</time>
</trkpt>
<trkpt lat="31.7363620" lon="35.1104340">
<ele>572.218323</ele>
<time>2025-10-14T15:45:26.965Z</time>
</trkpt>
<trkpt lat="31.7365730" lon="35.1105640">
<ele>571.488708</ele>
<time>2025-10-14T15:45:32.487Z</time>
</trkpt>
<trkpt lat="31.7371750" lon="35.1110380">
<ele>568.431274</ele>
<time>2025-10-14T15:45:49.437Z</time>
</trkpt>
<trkpt lat="31.7372760" lon="35.1111700">
<ele>567.783264</ele>
<time>2025-10-14T15:45:53.065Z</time>
</trkpt>
<trkpt lat="31.7373530" lon="35.1113630">
<ele>567.005188</ele>
<time>2025-10-14T15:45:57.483Z</time>
</trkpt>
<trkpt lat="31.7373570" lon="35.1115900">
<ele>566.176575</ele>
<time>2025-10-14T15:46:02.292Z</time>
</trkpt>
<trkpt lat="31.7372840" lon="35.1118900">
<ele>565.037720</ele>
<time>2025-10-14T15:46:09.118Z</time>
</trkpt>
<trkpt lat="31.7367830" lon="35.1129300">
<ele>563.203064</ele>
<time>2025-10-14T15:46:37.043Z</time>
</trkpt>
<trkpt lat="31.7365540" lon="35.1137520">
<ele>562.736694</ele>
<time>2025-10-14T15:47:01.992Z</time>
</trkpt>
<trkpt lat="31.7364220" lon="35.1140940">
<ele>562.534180</ele>
<time>2025-10-14T15:47:15.966Z</time>
</trkpt>
<trkpt lat="31.7361310" lon="35.1145540">
<ele>560.952087</ele>
<time>2025-10-14T15:47:29.991Z</time>
</trkpt>
<trkpt lat="31.7360090" lon="35.1146880">
<ele>560.357849</ele>
<time>2025-10-14T15:47:34.461Z</time>
</trkpt>
<trkpt lat="31.7358100" lon="35.1148000">
<ele>559.572510</ele>
<time>2025-10-14T15:47:40.317Z</time>
</trkpt>
<trkpt lat="31.7360620" lon="35.1152870">
<ele>557.846741</ele>
<time>2025-10-14T15:47:52.453Z</time>
</trkpt>
<trkpt lat="31.7360940" lon="35.1155480">
<ele>557.048462</ele>
<time>2025-10-14T15:47:57.803Z</time>
</trkpt>
<trkpt lat="31.7360260" lon="35.1159880">
<ele>555.405212</ele>
<time>2025-10-14T15:48:06.381Z</time>
</trkpt>
<trkpt lat="31.7357550" lon="35.1168770">
<ele>550.497620</ele>
<time>2025-10-14T15:48:24.193Z</time>
</trkpt>
<trkpt lat="31.7356350" lon="35.1172710">
<ele>548.322754</ele>
<time>2025-10-14T15:48:32.476Z</time>
</trkpt>
<trkpt lat="31.7356000" lon="35.1185300">
<ele>541.628540</ele>
<time>2025-10-14T15:48:59.852Z</time>
</trkpt>
<trkpt lat="31.7355550" lon="35.1186640">
<ele>540.846558</ele>
<time>2025-10-14T15:49:02.693Z</time>
</trkpt>
<trkpt lat="31.7352790" lon="35.1188870">
<ele>538.709290</ele>
<time>2025-10-14T15:49:10.143Z</time>
</trkpt>
<trkpt lat="31.7352560" lon="35.1189550">
<ele>538.312134</ele>
<time>2025-10-14T15:49:11.545Z</time>
</trkpt>
<trkpt lat="31.7353710" lon="35.1190600">
<ele>537.382874</ele>
<time>2025-10-14T15:49:14.732Z</time>
</trkpt>
<trkpt lat="31.7354370" lon="35.1190630">
<ele>536.961365</ele>
<time>2025-10-14T15:49:16.167Z</time>
</trkpt>
<trkpt lat="31.7355640" lon="35.1189780">
<ele>536.028687</ele>
<time>2025-10-14T15:49:19.414Z</time>
</trkpt>
<trkpt lat="31.7358210" lon="35.1187970">
<ele>534.116821</ele>
<time>2025-10-14T15:49:26.203Z</time>
</trkpt>
<trkpt lat="31.7358990" lon="35.1187430">
<ele>533.584290</ele>
<time>2025-10-14T15:49:28.301Z</time>
</trkpt>
<trkpt lat="31.7360030" lon="35.1186700">
<ele>533.198181</ele>
<time>2025-10-14T15:49:31.056Z</time>
</trkpt>
<trkpt lat="31.7360910" lon="35.1186300">
<ele>532.897400</ele>
<time>2025-10-14T15:49:33.179Z</time>
</trkpt>
<trkpt lat="31.7362280" lon="35.1185700">
<ele>532.431274</ele>
<time>2025-10-14T15:49:36.416Z</time>
</trkpt>
<trkpt lat="31.7363000" lon="35.1185700">
<ele>532.201721</ele>
<time>2025-10-14T15:49:37.979Z</time>
</trkpt>
<trkpt lat="31.7367400" lon="35.1187890">
<ele>530.678467</ele>
<time>2025-10-14T15:49:48.873Z</time>
</trkpt>
<trkpt lat="31.7369480" lon="35.1188430">
<ele>529.999390</ele>
<time>2025-10-14T15:49:54.541Z</time>
</trkpt>
<trkpt lat="31.7387430" lon="35.1190430">
<ele>530.504272</ele>
<time>2025-10-14T15:51:13.688Z</time>
</trkpt>
<trkpt lat="31.7399420" lon="35.1192500">
<ele>533.003784</ele>
<time>2025-10-14T15:52:05.234Z</time>
</trkpt>
<trkpt lat="31.7402710" lon="35.1192860">
<ele>533.599548</ele>
<time>2025-10-14T15:52:19.244Z</time>
</trkpt>
<trkpt lat="31.7407540" lon="35.1194400">
<ele>534.501892</ele>
<time>2025-10-14T15:52:40.030Z</time>
</trkpt>
<trkpt lat="31.7415030" lon="35.1197450">
<ele>535.898376</ele>
<time>2025-10-14T15:53:09.288Z</time>
</trkpt>
<trkpt lat="31.7419070" lon="35.1199390">
<ele>536.647766</ele>
<time>2025-10-14T15:53:25.204Z</time>
</trkpt>
<trkpt lat="31.7421590" lon="35.1200910">
<ele>537.134155</ele>
<time>2025-10-14T15:53:35.926Z</time>
</trkpt>
<trkpt lat="31.7424030" lon="35.1201900">
<ele>537.577393</ele>
<time>2025-10-14T15:53:45.987Z</time>
</trkpt>
<trkpt lat="31.7429040" lon="35.1203270">
<ele>538.780457</ele>
<time>2025-10-14T15:54:07.401Z</time>
</trkpt>
<trkpt lat="31.7429830" lon="35.1203740">
<ele>539.312378</ele>
<time>2025-10-14T15:54:11.504Z</time>
</trkpt>
<trkpt lat="31.7437830" lon="35.1212720">
<ele>545.957031</ele>
<time>2025-10-14T15:55:18.641Z</time>
</trkpt>
<trkpt lat="31.7443020" lon="35.1217500">
<ele>550.057251</ele>
<time>2025-10-14T15:56:07.960Z</time>
</trkpt>
<trkpt lat="31.7448390" lon="35.1221610">
<ele>554.596741</ele>
<time>2025-10-14T15:56:56.422Z</time>
</trkpt>
<trkpt lat="31.7449440" lon="35.1222860">
<ele>555.655334</ele>
<time>2025-10-14T15:57:07.051Z</time>
</trkpt>
<trkpt lat="31.7449810" lon="35.1224030">
<ele>556.407410</ele>
<time>2025-10-14T15:57:14.307Z</time>
</trkpt>
<trkpt lat="31.7450030" lon="35.1227160">
<ele>558.299683</ele>
<time>2025-10-14T15:57:31.645Z</time>
</trkpt>
<trkpt lat="31.7450460" lon="35.1229500">
<ele>559.742004</ele>
<time>2025-10-14T15:57:44.045Z</time>
</trkpt>
<trkpt lat="31.7453870" lon="35.1238040">
<ele>564.721313</ele>
<time>2025-10-14T15:58:27.920Z</time>
</trkpt>
<trkpt lat="31.7455660" lon="35.1244700">
<ele>568.092529</ele>
<time>2025-10-14T15:59:03.431Z</time>
</trkpt>
<trkpt lat="31.7456990" lon="35.1248360">
<ele>570.013611</ele>
<time>2025-10-14T15:59:24.652Z</time>
</trkpt>
<trkpt lat="31.7458040" lon="35.1252230">
<ele>571.974243</ele>
<time>2025-10-14T15:59:46.504Z</time>
</trkpt>
<trkpt lat="31.7458690" lon="35.1253600">
<ele>573.067078</ele>
<time>2025-10-14T15:59:54.883Z</time>
</trkpt>
<trkpt lat="31.7460050" lon="35.1255270">
<ele>574.767395</ele>
<time>2025-10-14T16:00:07.374Z</time>
</trkpt>
<trkpt lat="31.7460820" lon="35.1256770">
<ele>576.055786</ele>
<time>2025-10-14T16:00:17.091Z</time>
</trkpt>
<trkpt lat="31.7460900" lon="35.1257670">
<ele>576.721252</ele>
<time>2025-10-14T16:00:22.191Z</time>
</trkpt>
<trkpt lat="31.7459710" lon="35.1263390">
<ele>581.051514</ele>
<time>2025-10-14T16:00:58.241Z</time>
</trkpt>
<trkpt lat="31.7460180" lon="35.1266020">
<ele>583.027771</ele>
<time>2025-10-14T16:01:15.694Z</time>
</trkpt>
<trkpt lat="31.7461480" lon="35.1268100">
<ele>584.925964</ele>
<time>2025-10-14T16:01:33.254Z</time>
</trkpt>
<trkpt lat="31.7462680" lon="35.1269180">
<ele>586.232666</ele>
<time>2025-10-14T16:01:45.913Z</time>
</trkpt>
<trkpt lat="31.7471720" lon="35.1275300">
<ele>599.707703</ele>
<time>2025-10-14T16:03:25.547Z</time>
</trkpt>
<trkpt lat="31.7472790" lon="35.1276210">
<ele>601.518127</ele>
<time>2025-10-14T16:03:40.124Z</time>
</trkpt>
<trkpt lat="31.7473540" lon="35.1277750">
<ele>603.587219</ele>
<time>2025-10-14T16:03:57.007Z</time>
</trkpt>
<trkpt lat="31.7473070" lon="35.1279320">
<ele>605.527771</ele>
<time>2025-10-14T16:04:12.877Z</time>
</trkpt>
<trkpt lat="31.7472300" lon="35.1280750">
<ele>607.501099</ele>
<time>2025-10-14T16:04:28.887Z</time>
</trkpt>
<trkpt lat="31.7471930" lon="35.1282390">
<ele>609.479309</ele>
<time>2025-10-14T16:04:44.788Z</time>
</trkpt>
<trkpt lat="31.7471790" lon="35.1284930">
<ele>612.420471</ele>
<time>2025-10-14T16:05:08.358Z</time>
</trkpt>
<trkpt lat="31.7472090" lon="35.1289160">
<ele>616.454956</ele>
<time>2025-10-14T16:05:45.839Z</time>
</trkpt>
<trkpt lat="31.7471980" lon="35.1290850">
<ele>618.065979</ele>
<time>2025-10-14T16:06:00.636Z</time>
</trkpt>
<trkpt lat="31.7471600" lon="35.1292040">
<ele>619.274170</ele>
<time>2025-10-14T16:06:11.506Z</time>
</trkpt>
<trkpt lat="31.7470800" lon="35.1292890">
<ele>620.479248</ele>
<time>2025-10-14T16:06:21.860Z</time>
</trkpt>
<trkpt lat="31.7470140" lon="35.1293230">
<ele>621.284607</ele>
<time>2025-10-14T16:06:28.833Z</time>
</trkpt>
<trkpt lat="31.7467280" lon="35.1293590">
<ele>624.499573</ele>
<time>2025-10-14T16:06:55.429Z</time>
</trkpt>
<trkpt lat="31.7464480" lon="35.1294380">
<ele>627.717957</ele>
<time>2025-10-14T16:07:19.352Z</time>
</trkpt>
<trkpt lat="31.7457930" lon="35.1297960">
<ele>633.349976</ele>
<time>2025-10-14T16:08:06.799Z</time>
</trkpt>
<trkpt lat="31.7455440" lon="35.1298400">
<ele>634.133972</ele>
<time>2025-10-14T16:08:19.984Z</time>
</trkpt>
<trkpt lat="31.7452220" lon="35.1298460">
<ele>635.136536</ele>
<time>2025-10-14T16:08:35.240Z</time>
</trkpt>
<trkpt lat="31.7449770" lon="35.1299140">
<ele>635.920227</ele>
<time>2025-10-14T16:08:46.042Z</time>
</trkpt>
<trkpt lat="31.7447400" lon="35.1300160">
<ele>636.705994</ele>
<time>2025-10-14T16:08:55.749Z</time>
</trkpt>
<trkpt lat="31.7441450" lon="35.1303270">
<ele>639.385498</ele>
<time>2025-10-14T16:09:17.045Z</time>
</trkpt>
<trkpt lat="31.7439130" lon="35.1305280">
<ele>641.088806</ele>
<time>2025-10-14T16:09:27.084Z</time>
</trkpt>
<trkpt lat="31.7437450" lon="35.1307500">
<ele>642.582642</ele>
<time>2025-10-14T16:09:37.636Z</time>
</trkpt>
<trkpt lat="31.7436180" lon="35.1309560">
<ele>643.861572</ele>
<time>2025-10-14T16:09:48.929Z</time>
</trkpt>
<trkpt lat="31.7435370" lon="35.1311460">
<ele>644.929932</ele>
<time>2025-10-14T16:10:00.190Z</time>
</trkpt>
<trkpt lat="31.7434800" lon="35.1313470">
<ele>645.994995</ele>
<time>2025-10-14T16:10:13.239Z</time>
</trkpt>
<trkpt lat="31.7434120" lon="35.1317650">
<ele>648.134277</ele>
<time>2025-10-14T16:10:45.238Z</time>
</trkpt>
<trkpt lat="31.7433940" lon="35.1320180">
<ele>650.566895</ele>
<time>2025-10-14T16:11:07.726Z</time>
</trkpt>
<trkpt lat="31.7434080" lon="35.1324850">
<ele>656.436279</ele>
<time>2025-10-14T16:11:53.518Z</time>
</trkpt>
<trkpt lat="31.7434450" lon="35.1327800">
<ele>660.181763</ele>
<time>2025-10-14T16:12:24.130Z</time>
</trkpt>
<trkpt lat="31.7435410" lon="35.1331870">
<ele>665.486877</ele>
<time>2025-10-14T16:13:07.334Z</time>
</trkpt>
<trkpt lat="31.7435020" lon="35.1333030">
<ele>667.053589</ele>
<time>2025-10-14T16:13:19.748Z</time>
</trkpt>
<trkpt lat="31.7434450" lon="35.1333550">
<ele>668.119141</ele>
<time>2025-10-14T16:13:28.063Z</time>
</trkpt>
<trkpt lat="31.7433060" lon="35.1333870">
<ele>670.211121</ele>
<time>2025-10-14T16:13:43.857Z</time>
</trkpt>
<trkpt lat="31.7425120" lon="35.1333610">
<ele>678.065613</ele>
<time>2025-10-14T16:14:57.946Z</time>
</trkpt>
<trkpt lat="31.7420810" lon="35.1333220">
<ele>680.776367</ele>
<time>2025-10-14T16:15:27.189Z</time>
</trkpt>
<trkpt lat="31.7416940" lon="35.1332370">
<ele>683.245117</ele>
<time>2025-10-14T16:15:47.972Z</time>
</trkpt>
<trkpt lat="31.7412610" lon="35.1330370">
<ele>686.162415</ele>
<time>2025-10-14T16:16:05.988Z</time>
</trkpt>
<trkpt lat="31.7402890" lon="35.1322980">
<ele>689.792358</ele>
<time>2025-10-14T16:16:44.300Z</time>
</trkpt>
<trkpt lat="31.7401880" lon="35.1322520">
<ele>690.116333</ele>
<time>2025-10-14T16:16:49.324Z</time>
</trkpt>
<trkpt lat="31.7400340" lon="35.1322510">
<ele>690.576965</ele>
<time>2025-10-14T16:16:57.507Z</time>
</trkpt>
<trkpt lat="31.7400720" lon="35.1323140">
<ele>690.773376</ele>
<time>2025-10-14T16:17:01.436Z</time>
</trkpt>
<trkpt lat="31.7401570" lon="35.1324560">
<ele>691.215027</ele>
<time>2025-10-14T16:17:10.536Z</time>
</trkpt>
<trkpt lat="31.7403730" lon="35.1326800">
<ele>692.493530</ele>
<time>2025-10-14T16:17:30.612Z</time>
</trkpt>
<trkpt lat="31.7407190" lon="35.1331330">
<ele>697.073364</ele>
<time>2025-10-14T16:18:13.501Z</time>
</trkpt>
<trkpt lat="31.7411940" lon="35.1336080">
<ele>702.588257</ele>
<time>2025-10-14T16:19:06.013Z</time>
</trkpt>
<trkpt lat="31.7415040" lon="35.1337970">
<ele>705.676636</ele>
<time>2025-10-14T16:19:31.891Z</time>
</trkpt>
<trkpt lat="31.7422360" lon="35.1341320">
<ele>711.936768</ele>
<time>2025-10-14T16:20:25.738Z</time>
</trkpt>
<trkpt lat="31.7426000" lon="35.1343390">
<ele>715.006470</ele>
<time>2025-10-14T16:20:53.222Z</time>
</trkpt>
<trkpt lat="31.7433630" lon="35.1348870">
<ele>721.755676</ele>
<time>2025-10-14T16:21:56.763Z</time>
</trkpt>
<trkpt lat="31.7438950" lon="35.1352730">
<ele>726.002625</ele>
<time>2025-10-14T16:22:39.819Z</time>
</trkpt>
<trkpt lat="31.7442420" lon="35.1354120">
<ele>728.493164</ele>
<time>2025-10-14T16:23:04.890Z</time>
</trkpt>
<trkpt lat="31.7446160" lon="35.1355020">
<ele>731.086670</ele>
<time>2025-10-14T16:23:29.624Z</time>
</trkpt>
<trkpt lat="31.7447980" lon="35.1356310">
<ele>732.530396</ele>
<time>2025-10-14T16:23:42.551Z</time>
</trkpt>
<trkpt lat="31.7447590" lon="35.1356890">
<ele>732.957581</ele>
<time>2025-10-14T16:23:46.602Z</time>
</trkpt>
<trkpt lat="31.7446040" lon="35.1357040">
<ele>733.848267</ele>
<time>2025-10-14T16:23:55.728Z</time>
</trkpt>
<trkpt lat="31.7439740" lon="35.1356410">
<ele>736.206055</ele>
<time>2025-10-14T16:24:31.964Z</time>
</trkpt>
<trkpt lat="31.7423330" lon="35.1353550">
<ele>740.780090</ele>
<time>2025-10-14T16:25:47.604Z</time>
</trkpt>
<trkpt lat="31.7411360" lon="35.1352460">
<ele>741.716614</ele>
<time>2025-10-14T16:26:22.747Z</time>
</trkpt>
<trkpt lat="31.7409260" lon="35.1352000">
<ele>742.743286</ele>
<time>2025-10-14T16:26:31.250Z</time>
</trkpt>
<trkpt lat="31.7407370" lon="35.1352240">
<ele>743.899292</ele>
<time>2025-10-14T16:26:40.115Z</time>
</trkpt>
<trkpt lat="31.7406270" lon="35.1354140">
<ele>745.088013</ele>
<time>2025-10-14T16:26:50.365Z</time>
</trkpt>
<trkpt lat="31.7411190" lon="35.1355710">
<ele>748.188171</ele>
<time>2025-10-14T16:27:21.669Z</time>
</trkpt>
<trkpt lat="31.7415200" lon="35.1357550">
<ele>750.805725</ele>
<time>2025-10-14T16:27:53.697Z</time>
</trkpt>
<trkpt lat="31.7420510" lon="35.1359380">
<ele>754.920837</ele>
<time>2025-10-14T16:28:42.460Z</time>
</trkpt>
<trkpt lat="31.7431340" lon="35.1364880">
<ele>765.739990</ele>
<time>2025-10-14T16:30:14.006Z</time>
</trkpt>
<trkpt lat="31.7436130" lon="35.1368880">
<ele>771.042480</ele>
<time>2025-10-14T16:30:57.290Z</time>
</trkpt>
<trkpt lat="31.7438190" lon="35.1370120">
<ele>773.071167</ele>
<time>2025-10-14T16:31:14.287Z</time>
</trkpt>
<trkpt lat="31.7439560" lon="35.1370540">
<ele>774.312256</ele>
<time>2025-10-14T16:31:24.741Z</time>
</trkpt>
<trkpt lat="31.7446240" lon="35.1370460">
<ele>780.168335</ele>
<time>2025-10-14T16:32:15.337Z</time>
</trkpt>
<trkpt lat="31.7449580" lon="35.1371000">
<ele>783.123779</ele>
<time>2025-10-14T16:32:41.661Z</time>
</trkpt>
<trkpt lat="31.7458490" lon="35.1373580">
<ele>789.335632</ele>
<time>2025-10-14T16:33:52.538Z</time>
</trkpt>
<trkpt lat="31.7464160" lon="35.1376360">
<ele>793.132019</ele>
<time>2025-10-14T16:34:31.835Z</time>
</trkpt>
<trkpt lat="31.7466080" lon="35.1376060">
<ele>794.329041</ele>
<time>2025-10-14T16:34:41.987Z</time>
</trkpt>
<trkpt lat="31.7469890" lon="35.1376610">
<ele>796.244324</ele>
<time>2025-10-14T16:34:58.835Z</time>
</trkpt>
<trkpt lat="31.7473270" lon="35.1377810">
<ele>796.839111</ele>
<time>2025-10-14T16:35:10.964Z</time>
</trkpt>
<trkpt lat="31.7474520" lon="35.1377950">
<ele>797.050598</ele>
<time>2025-10-14T16:35:14.713Z</time>
</trkpt>
<trkpt lat="31.7475370" lon="35.1377730">
<ele>797.197266</ele>
<time>2025-10-14T16:35:17.222Z</time>
</trkpt>
<trkpt lat="31.7476960" lon="35.1376520">
<ele>797.516296</ele>
<time>2025-10-14T16:35:22.884Z</time>
</trkpt>
<trkpt lat="31.7484370" lon="35.1371710">
<ele>798.942139</ele>
<time>2025-10-14T16:35:57.001Z</time>
</trkpt>
<trkpt lat="31.7486590" lon="35.1370650">
<ele>799.719177</ele>
<time>2025-10-14T16:36:08.637Z</time>
</trkpt>
<trkpt lat="31.7490850" lon="35.1369760">
<ele>801.569458</ele>
<time>2025-10-14T16:36:31.948Z</time>
</trkpt>
<trkpt lat="31.7492650" lon="35.1370280">
<ele>802.362122</ele>
<time>2025-10-14T16:36:42.232Z</time>
</trkpt>
<trkpt lat="31.7494220" lon="35.1370170">
<ele>803.034729</ele>
<time>2025-10-14T16:36:50.909Z</time>
</trkpt>
<trkpt lat="31.7499340" lon="35.1368170">
<ele>805.341980</ele>
<time>2025-10-14T16:37:20.752Z</time>
</trkpt>
<trkpt lat="31.7500170" lon="35.1367840">
<ele>805.716614</ele>
<time>2025-10-14T16:37:25.678Z</time>
</trkpt>
<trkpt lat="31.7500820" lon="35.1366770">
<ele>806.194824</ele>
<time>2025-10-14T16:37:31.991Z</time>
</trkpt>
<trkpt lat="31.7500930" lon="35.1365270">
<ele>806.742249</ele>
<time>2025-10-14T16:37:39.144Z</time>
</trkpt>
<trkpt lat="31.7500010" lon="35.1360210">
<ele>808.157410</ele>
<time>2025-10-14T16:38:03.094Z</time>
</trkpt>
<trkpt lat="31.7499700" lon="35.1357650">
<ele>808.857849</ele>
<time>2025-10-14T16:38:15.475Z</time>
</trkpt>
<trkpt lat="31.7499720" lon="35.1355050">
<ele>809.562195</ele>
<time>2025-10-14T16:38:26.655Z</time>
</trkpt>
<trkpt lat="31.7499780" lon="35.1353880">
<ele>809.879700</ele>
<time>2025-10-14T16:38:31.658Z</time>
</trkpt>
<trkpt lat="31.7500230" lon="35.1353910">
<ele>810.023254</ele>
<time>2025-10-14T16:38:32.992Z</time>
</trkpt>
<trkpt lat="31.7499550" lon="35.1352940">
<ele>810.363831</ele>
<time>2025-10-14T16:38:40.411Z</time>
</trkpt>
<trkpt lat="31.7499320" lon="35.1352700">
<ele>810.461792</ele>
<time>2025-10-14T16:38:42.581Z</time>
</trkpt>
<trkpt lat="31.7498510" lon="35.1352390">
<ele>810.733154</ele>
<time>2025-10-14T16:38:48.450Z</time>
</trkpt>
<trkpt lat="31.7497590" lon="35.1350490">
<ele>811.325439</ele>
<time>2025-10-14T16:39:01.395Z</time>
</trkpt>
<trkpt lat="31.7497320" lon="35.1350120">
<ele>811.457520</ele>
<time>2025-10-14T16:39:06.550Z</time>
</trkpt>
<trkpt lat="31.7496800" lon="35.1350410">
<ele>811.640808</ele>
<time>2025-10-14T16:39:13.684Z</time>
</trkpt>
<trkpt lat="31.7495360" lon="35.1348980">
<ele>812.241272</ele>
<time>2025-10-14T16:39:36.985Z</time>
</trkpt>
<trkpt lat="31.7494440" lon="35.1350100">
<ele>812.523865</ele>
<time>2025-10-14T16:39:40.307Z</time>
</trkpt>
<trkpt lat="31.7493000" lon="35.1350870">
<ele>812.520996</ele>
<time>2025-10-14T16:39:44.262Z</time>
</trkpt>
<trkpt lat="31.7491830" lon="35.1351050">
<ele>812.518799</ele>
<time>2025-10-14T16:39:47.084Z</time>
</trkpt>
<trkpt lat="31.7489310" lon="35.1351020">
<ele>812.514099</ele>
<time>2025-10-14T16:39:52.985Z</time>
</trkpt>
<trkpt lat="31.7487400" lon="35.1349850">
<ele>812.510193</ele>
<time>2025-10-14T16:39:57.481Z</time>
</trkpt>
<trkpt lat="31.7486720" lon="35.1348840">
<ele>812.508179</ele>
<time>2025-10-14T16:39:59.503Z</time>
</trkpt>
<trkpt lat="31.7486520" lon="35.1348030">
<ele>812.506836</ele>
<time>2025-10-14T16:40:00.766Z</time>
</trkpt>
<trkpt lat="31.7486880" lon="35.1346400">
<ele>812.504211</ele>
<time>2025-10-14T16:40:03.113Z</time>
</trkpt>
<trkpt lat="31.7487320" lon="35.1345720">
<ele>812.502869</ele>
<time>2025-10-14T16:40:04.288Z</time>
</trkpt>
<trkpt lat="31.7488230" lon="35.1345020">
<ele>812.500854</ele>
<time>2025-10-14T16:40:06.066Z</time>
</trkpt>
<trkpt lat="31.7490350" lon="35.1344470">
<ele>812.496948</ele>
<time>2025-10-14T16:40:09.802Z</time>
</trkpt>
<trkpt lat="31.7491995" lon="35.1344156">
<ele>812.492249</ele>
<time>2025-10-14T16:40:14.636Z</time>
</trkpt>
<trkpt lat="31.7490350" lon="35.1344470">
<ele>812.434448</ele>
<time>2025-10-14T16:40:20.271Z</time>
</trkpt>
<trkpt lat="31.7488230" lon="35.1345020">
<ele>812.376953</ele>
<time>2025-10-14T16:40:26.207Z</time>
</trkpt>
<trkpt lat="31.7487320" lon="35.1345720">
<ele>812.348206</ele>
<time>2025-10-14T16:40:29.541Z</time>
</trkpt>
<trkpt lat="31.7486880" lon="35.1346400">
<ele>812.328918</ele>
<time>2025-10-14T16:40:31.829Z</time>
</trkpt>
<trkpt lat="31.7486520" lon="35.1348030">
<ele>812.291016</ele>
<time>2025-10-14T16:40:36.221Z</time>
</trkpt>
<trkpt lat="31.7486720" lon="35.1348840">
<ele>812.272034</ele>
<time>2025-10-14T16:40:38.209Z</time>
</trkpt>
<trkpt lat="31.7487400" lon="35.1349850">
<ele>812.243042</ele>
<time>2025-10-14T16:40:41.056Z</time>
</trkpt>
<trkpt lat="31.7489310" lon="35.1351020">
<ele>812.186096</ele>
<time>2025-10-14T16:40:45.810Z</time>
</trkpt>
<trkpt lat="31.7491830" lon="35.1351050">
<ele>812.119385</ele>
<time>2025-10-14T16:40:50.746Z</time>
</trkpt>
<trkpt lat="31.7493000" lon="35.1350870">
<ele>812.088196</ele>
<time>2025-10-14T16:40:53.103Z</time>
</trkpt>
<trkpt lat="31.7494440" lon="35.1350100">
<ele>812.046265</ele>
<time>2025-10-14T16:40:56.093Z</time>
</trkpt>
<trkpt lat="31.7495360" lon="35.1348980">
<ele>811.803894</ele>
<time>2025-10-14T16:40:58.355Z</time>
</trkpt>
<trkpt lat="31.7496550" lon="35.1346500">
<ele>808.692566</ele>
<time>2025-10-14T16:41:02.011Z</time>
</trkpt>
<trkpt lat="31.7496610" lon="35.1345540">
<ele>807.640869</ele>
<time>2025-10-14T16:41:03.177Z</time>
</trkpt>
<trkpt lat="31.7496340" lon="35.1344250">
<ele>806.189392</ele>
<time>2025-10-14T16:41:04.702Z</time>
</trkpt>
<trkpt lat="31.7495230" lon="35.1342630">
<ele>803.916260</ele>
<time>2025-10-14T16:41:07.022Z</time>
</trkpt>
<trkpt lat="31.7495360" lon="35.1341780">
<ele>802.972656</ele>
<time>2025-10-14T16:41:10.937Z</time>
</trkpt>
<trkpt lat="31.7494200" lon="35.1341440">
<ele>801.436646</ele>
<time>2025-10-14T16:41:17.190Z</time>
</trkpt>
<trkpt lat="31.7493300" lon="35.1339880">
<ele>799.376892</ele>
<time>2025-10-14T16:41:25.378Z</time>
</trkpt>
<trkpt lat="31.7494890" lon="35.1337320">
<ele>795.913269</ele>
<time>2025-10-14T16:41:38.716Z</time>
</trkpt>
<trkpt lat="31.7496300" lon="35.1336340">
<ele>793.808838</ele>
<time>2025-10-14T16:41:46.678Z</time>
</trkpt>
<trkpt lat="31.7497070" lon="35.1334790">
<ele>791.847473</ele>
<time>2025-10-14T16:41:53.998Z</time>
</trkpt>
<trkpt lat="31.7501060" lon="35.1328820">
<ele>782.419617</ele>
<time>2025-10-14T16:42:24.745Z</time>
</trkpt>
<trkpt lat="31.7500920" lon="35.1327000">
<ele>780.000977</ele>
<time>2025-10-14T16:42:32.102Z</time>
</trkpt>
<trkpt lat="31.7499630" lon="35.1324040">
<ele>775.598938</ele>
<time>2025-10-14T16:42:45.757Z</time>
</trkpt>
<trkpt lat="31.7499890" lon="35.1322180">
<ele>773.104187</ele>
<time>2025-10-14T16:42:53.619Z</time>
</trkpt>
<trkpt lat="31.7499120" lon="35.1320340">
<ele>770.390015</ele>
<time>2025-10-14T16:43:02.492Z</time>
</trkpt>
<trkpt lat="31.7499600" lon="35.1316460">
<ele>765.200867</ele>
<time>2025-10-14T16:43:20.517Z</time>
</trkpt>
<trkpt lat="31.7504190" lon="35.1316570">
<ele>759.728882</ele>
<time>2025-10-14T16:43:31.011Z</time>
</trkpt>
<trkpt lat="31.7503270" lon="35.1322400">
<ele>756.479919</ele>
<time>2025-10-14T16:43:37.716Z</time>
</trkpt>
<trkpt lat="31.7503230" lon="35.1323290">
<ele>755.991516</ele>
<time>2025-10-14T16:43:38.791Z</time>
</trkpt>
<trkpt lat="31.7503270" lon="35.1322400">
<ele>755.503235</ele>
<time>2025-10-14T16:43:39.816Z</time>
</trkpt>
<trkpt lat="31.7504190" lon="35.1316570">
<ele>752.254150</ele>
<time>2025-10-14T16:43:46.728Z</time>
</trkpt>
<trkpt lat="31.7505580" lon="35.1308990">
<ele>747.972290</ele>
<time>2025-10-14T16:43:54.763Z</time>
</trkpt>
<trkpt lat="31.7506860" lon="35.1304730">
<ele>745.434387</ele>
<time>2025-10-14T16:43:59.379Z</time>
</trkpt>
<trkpt lat="31.7506890" lon="35.1303590">
<ele>744.793762</ele>
<time>2025-10-14T16:44:00.648Z</time>
</trkpt>
<trkpt lat="31.7506290" lon="35.1302120">
<ele>743.877869</ele>
<time>2025-10-14T16:44:02.475Z</time>
</trkpt>
<trkpt lat="31.7504770" lon="35.1299750">
<ele>742.210449</ele>
<time>2025-10-14T16:44:05.878Z</time>
</trkpt>
<trkpt lat="31.7504420" lon="35.1297620">
<ele>740.991882</ele>
<time>2025-10-14T16:44:08.434Z</time>
</trkpt>
<trkpt lat="31.7505120" lon="35.1292240">
<ele>737.934814</ele>
<time>2025-10-14T16:44:15.113Z</time>
</trkpt>
<trkpt lat="31.7505500" lon="35.1290190">
<ele>737.239807</ele>
<time>2025-10-14T16:44:17.772Z</time>
</trkpt>
<trkpt lat="31.7506140" lon="35.1288460">
<ele>736.929260</ele>
<time>2025-10-14T16:44:20.165Z</time>
</trkpt>
<trkpt lat="31.7508740" lon="35.1284300">
<ele>736.079529</ele>
<time>2025-10-14T16:44:27.033Z</time>
</trkpt>
<trkpt lat="31.7510000" lon="35.1282290">
<ele>735.668457</ele>
<time>2025-10-14T16:44:30.701Z</time>
</trkpt>
<trkpt lat="31.7510470" lon="35.1280550">
<ele>735.367981</ele>
<time>2025-10-14T16:44:33.477Z</time>
</trkpt>
<trkpt lat="31.7509300" lon="35.1276390">
<ele>734.646729</ele>
<time>2025-10-14T16:44:40.327Z</time>
</trkpt>
<trkpt lat="31.7510100" lon="35.1275420">
<ele>734.424316</ele>
<time>2025-10-14T16:44:43.849Z</time>
</trkpt>
<trkpt lat="31.7511720" lon="35.1274200">
<ele>734.051941</ele>
<time>2025-10-14T16:44:49.668Z</time>
</trkpt>
<trkpt lat="31.7512560" lon="35.1273770">
<ele>733.889648</ele>
<time>2025-10-14T16:44:52.510Z</time>
</trkpt>
<trkpt lat="31.7513550" lon="35.1272830">
<ele>733.687561</ele>
<time>2025-10-14T16:44:56.320Z</time>
</trkpt>
<trkpt lat="31.7515780" lon="35.1270300">
<ele>733.195313</ele>
<time>2025-10-14T16:45:05.453Z</time>
</trkpt>
<trkpt lat="31.7517360" lon="35.1267980">
<ele>732.793823</ele>
<time>2025-10-14T16:45:12.910Z</time>
</trkpt>
<trkpt lat="31.7519130" lon="35.1264780">
<ele>732.278137</ele>
<time>2025-10-14T16:45:22.303Z</time>
</trkpt>
<trkpt lat="31.7521980" lon="35.1260830">
<ele>731.578430</ele>
<time>2025-10-14T16:45:34.219Z</time>
</trkpt>
<trkpt lat="31.7525200" lon="35.1255880">
<ele>730.437134</ele>
<time>2025-10-14T16:45:48.110Z</time>
</trkpt>
<trkpt lat="31.7525750" lon="35.1254310">
<ele>730.019531</ele>
<time>2025-10-14T16:45:51.852Z</time>
</trkpt>
<trkpt lat="31.7531090" lon="35.1243240">
<ele>726.889587</ele>
<time>2025-10-14T16:46:20.452Z</time>
</trkpt>
<trkpt lat="31.7535250" lon="35.1233370">
<ele>722.118958</ele>
<time>2025-10-14T16:46:44.367Z</time>
</trkpt>
<trkpt lat="31.7535660" lon="35.1231750">
<ele>721.204773</ele>
<time>2025-10-14T16:46:47.779Z</time>
</trkpt>
<trkpt lat="31.7535800" lon="35.1225390">
<ele>717.763794</ele>
<time>2025-10-14T16:47:00.065Z</time>
</trkpt>
<trkpt lat="31.7536210" lon="35.1223320">
<ele>716.614258</ele>
<time>2025-10-14T16:47:04.048Z</time>
</trkpt>
<trkpt lat="31.7537150" lon="35.1220830">
<ele>715.140808</ele>
<time>2025-10-14T16:47:09.126Z</time>
</trkpt>
<trkpt lat="31.7537820" lon="35.1219060">
<ele>714.014526</ele>
<time>2025-10-14T16:47:12.696Z</time>
</trkpt>
<trkpt lat="31.7537900" lon="35.1216100">
<ele>712.070007</ele>
<time>2025-10-14T16:47:18.120Z</time>
</trkpt>
<trkpt lat="31.7537430" lon="35.1213620">
<ele>710.401733</ele>
<time>2025-10-14T16:47:22.758Z</time>
</trkpt>
<trkpt lat="31.7536520" lon="35.1211800">
<ele>709.015381</ele>
<time>2025-10-14T16:47:26.625Z</time>
</trkpt>
<trkpt lat="31.7534980" lon="35.1210270">
<ele>707.458740</ele>
<time>2025-10-14T16:47:31.008Z</time>
</trkpt>
<trkpt lat="31.7530930" lon="35.1205820">
<ele>703.178711</ele>
<time>2025-10-14T16:47:43.454Z</time>
</trkpt>
<trkpt lat="31.7528910" lon="35.1204050">
<ele>701.233643</ele>
<time>2025-10-14T16:47:49.454Z</time>
</trkpt>
<trkpt lat="31.7526550" lon="35.1203180">
<ele>700.107544</ele>
<time>2025-10-14T16:47:55.554Z</time>
</trkpt>
<trkpt lat="31.7521540" lon="35.1202620">
<ele>698.664856</ele>
<time>2025-10-14T16:48:08.523Z</time>
</trkpt>
<trkpt lat="31.7520190" lon="35.1202160">
<ele>698.261902</ele>
<time>2025-10-14T16:48:12.368Z</time>
</trkpt>
<trkpt lat="31.7512680" lon="35.1198320">
<ele>695.914307</ele>
<time>2025-10-14T16:48:35.382Z</time>
</trkpt>
<trkpt lat="31.7510580" lon="35.1196710">
<ele>695.053833</ele>
<time>2025-10-14T16:48:42.254Z</time>
</trkpt>
<trkpt lat="31.7509070" lon="35.1194900">
<ele>694.034363</ele>
<time>2025-10-14T16:48:48.003Z</time>
</trkpt>
<trkpt lat="31.7503980" lon="35.1186150">
<ele>689.771912</ele>
<time>2025-10-14T16:49:10.198Z</time>
</trkpt>
<trkpt lat="31.7502940" lon="35.1183920">
<ele>688.749329</ele>
<time>2025-10-14T16:49:15.226Z</time>
</trkpt>
<trkpt lat="31.7501420" lon="35.1178710">
<ele>686.379639</ele>
<time>2025-10-14T16:49:25.913Z</time>
</trkpt>
<trkpt lat="31.7499450" lon="35.1168380">
<ele>680.362122</ele>
<time>2025-10-14T16:49:46.191Z</time>
</trkpt>
<trkpt lat="31.7495760" lon="35.1155970">
<ele>672.759705</ele>
<time>2025-10-14T16:50:12.232Z</time>
</trkpt>
<trkpt lat="31.7494330" lon="35.1152540">
<ele>670.447388</ele>
<time>2025-10-14T16:50:20.017Z</time>
</trkpt>
<trkpt lat="31.7491020" lon="35.1147520">
<ele>666.602234</ele>
<time>2025-10-14T16:50:32.562Z</time>
</trkpt>
<trkpt lat="31.7490230" lon="35.1145620">
<ele>665.322021</ele>
<time>2025-10-14T16:50:36.610Z</time>
</trkpt>
<trkpt lat="31.7489680" lon="35.1141870">
<ele>663.018555</ele>
<time>2025-10-14T16:50:43.745Z</time>
</trkpt>
<trkpt lat="31.7489730" lon="35.1140600">
<ele>662.248962</ele>
<time>2025-10-14T16:50:46.090Z</time>
</trkpt>
<trkpt lat="31.7490190" lon="35.1138990">
<ele>660.835693</ele>
<time>2025-10-14T16:50:49.195Z</time>
</trkpt>
<trkpt lat="31.7491000" lon="35.1137580">
<ele>659.345825</ele>
<time>2025-10-14T16:50:52.278Z</time>
</trkpt>
<trkpt lat="31.7495470" lon="35.1132060">
<ele>652.671814</ele>
<time>2025-10-14T16:51:05.907Z</time>
</trkpt>
<trkpt lat="31.7498660" lon="35.1127470">
<ele>647.481506</ele>
<time>2025-10-14T16:51:16.536Z</time>
</trkpt>
<trkpt lat="31.7501270" lon="35.1121420">
<ele>641.963867</ele>
<time>2025-10-14T16:51:29.023Z</time>
</trkpt>
<trkpt lat="31.7501680" lon="35.1119800">
<ele>640.793030</ele>
<time>2025-10-14T16:51:32.207Z</time>
</trkpt>
<trkpt lat="31.7501620" lon="35.1116410">
<ele>638.444092</ele>
<time>2025-10-14T16:51:38.662Z</time>
</trkpt>
<trkpt lat="31.7499230" lon="35.1104450">
<ele>629.933105</ele>
<time>2025-10-14T16:52:02.141Z</time>
</trkpt>
<trkpt lat="31.7499080" lon="35.1097240">
<ele>625.058350</ele>
<time>2025-10-14T16:52:15.795Z</time>
</trkpt>
<trkpt lat="31.7498730" lon="35.1093870">
<ele>622.778259</ele>
<time>2025-10-14T16:52:22.194Z</time>
</trkpt>
<trkpt lat="31.7497720" lon="35.1088930">
<ele>619.366150</ele>
<time>2025-10-14T16:52:31.750Z</time>
</trkpt>
<trkpt lat="31.7496740" lon="35.1086380">
<ele>617.486816</ele>
<time>2025-10-14T16:52:37.045Z</time>
</trkpt>
<trkpt lat="31.7496010" lon="35.1083130">
<ele>615.229309</ele>
<time>2025-10-14T16:52:43.443Z</time>
</trkpt>
<trkpt lat="31.7494910" lon="35.1081090">
<ele>613.744812</ele>
<time>2025-10-14T16:52:48.056Z</time>
</trkpt>
<trkpt lat="31.7486060" lon="35.1059040">
<ele>599.948730</ele>
<time>2025-10-14T16:53:16.036Z</time>
</trkpt>
<trkpt lat="31.7484370" lon="35.1056270">
<ele>598.315186</ele>
<time>2025-10-14T16:53:20.044Z</time>
</trkpt>
<trkpt lat="31.7479490" lon="35.1049990">
<ele>594.238831</ele>
<time>2025-10-14T16:53:30.154Z</time>
</trkpt>
<trkpt lat="31.7476880" lon="35.1047040">
<ele>592.198914</ele>
<time>2025-10-14T16:53:35.318Z</time>
</trkpt>
<trkpt lat="31.7475110" lon="35.1044350">
<ele>591.049683</ele>
<time>2025-10-14T16:53:39.443Z</time>
</trkpt>
<trkpt lat="31.7459320" lon="35.1012330">
<ele>580.199707</ele>
<time>2025-10-14T16:54:26.617Z</time>
</trkpt>
<trkpt lat="31.7457870" lon="35.1007520">
<ele>579.145630</ele>
<time>2025-10-14T16:54:35.253Z</time>
</trkpt>
<trkpt lat="31.7457710" lon="35.1006250">
<ele>578.921082</ele>
<time>2025-10-14T16:54:37.757Z</time>
</trkpt>
<trkpt lat="31.7457850" lon="35.1005000">
<ele>578.700562</ele>
<time>2025-10-14T16:54:39.873Z</time>
</trkpt>
<trkpt lat="31.7458900" lon="35.1002780">
<ele>578.256287</ele>
<time>2025-10-14T16:54:43.897Z</time>
</trkpt>
<trkpt lat="31.7462780" lon="35.0997730">
<ele>577.066040</ele>
<time>2025-10-14T16:54:53.087Z</time>
</trkpt>
<trkpt lat="31.7463430" lon="35.0996210">
<ele>576.768494</ele>
<time>2025-10-14T16:54:55.407Z</time>
</trkpt>
<trkpt lat="31.7463560" lon="35.0994310">
<ele>576.435120</ele>
<time>2025-10-14T16:54:58.096Z</time>
</trkpt>
<trkpt lat="31.7463430" lon="35.0993300">
<ele>576.256409</ele>
<time>2025-10-14T16:54:59.518Z</time>
</trkpt>
<trkpt lat="31.7462460" lon="35.0991020">
<ele>575.437195</ele>
<time>2025-10-14T16:55:03.032Z</time>
</trkpt>
<trkpt lat="31.7461400" lon="35.0989300">
<ele>574.291809</ele>
<time>2025-10-14T16:55:05.754Z</time>
</trkpt>
<trkpt lat="31.7459630" lon="35.0988040">
<ele>572.979797</ele>
<time>2025-10-14T16:55:08.698Z</time>
</trkpt>
<trkpt lat="31.7460280" lon="35.0989670">
<ele>572.008972</ele>
<time>2025-10-14T16:55:12.277Z</time>
</trkpt>
<trkpt lat="31.7460680" lon="35.0993060">
<ele>570.163452</ele>
<time>2025-10-14T16:55:18.885Z</time>
</trkpt>
<trkpt lat="31.7460510" lon="35.0994760">
<ele>569.240479</ele>
<time>2025-10-14T16:55:22.172Z</time>
</trkpt>
<trkpt lat="31.7459700" lon="35.0996660">
<ele>568.094360</ele>
<time>2025-10-14T16:55:26.241Z</time>
</trkpt>
<trkpt lat="31.7456440" lon="35.1000700">
<ele>565.091187</ele>
<time>2025-10-14T16:55:37.073Z</time>
</trkpt>
<trkpt lat="31.7455150" lon="35.1003270">
<ele>563.015930</ele>
<time>2025-10-14T16:55:42.635Z</time>
</trkpt>
<trkpt lat="31.7453970" lon="35.1009100">
<ele>558.418518</ele>
<time>2025-10-14T16:55:53.368Z</time>
</trkpt>
<trkpt lat="31.7451790" lon="35.1023400">
<ele>547.972107</ele>
<time>2025-10-14T16:56:20.171Z</time>
</trkpt>
<trkpt lat="31.7452770" lon="35.1026970">
<ele>546.946838</ele>
<time>2025-10-14T16:56:27.825Z</time>
</trkpt>
<trkpt lat="31.7454490" lon="35.1031200">
<ele>545.665405</ele>
<time>2025-10-14T16:56:38.057Z</time>
</trkpt>
<trkpt lat="31.7458050" lon="35.1038130">
<ele>543.452698</ele>
<time>2025-10-14T16:56:58.345Z</time>
</trkpt>
<trkpt lat="31.7458830" lon="35.1040050">
<ele>542.871155</ele>
<time>2025-10-14T16:57:03.753Z</time>
</trkpt>
<trkpt lat="31.7460420" lon="35.1049670">
<ele>542.992493</ele>
<time>2025-10-14T16:57:28.290Z</time>
</trkpt>
<trkpt lat="31.7461670" lon="35.1054110">
<ele>543.214417</ele>
<time>2025-10-14T16:57:40.635Z</time>
</trkpt>
<trkpt lat="31.7463570" lon="35.1057730">
<ele>543.416260</ele>
<time>2025-10-14T16:57:54.210Z</time>
</trkpt>
<trkpt lat="31.7467940" lon="35.1063400">
<ele>544.660461</ele>
<time>2025-10-14T16:58:25.698Z</time>
</trkpt>
<trkpt lat="31.7468400" lon="35.1064560">
<ele>544.992249</ele>
<time>2025-10-14T16:58:31.604Z</time>
</trkpt>
<trkpt lat="31.7468610" lon="35.1066240">
<ele>545.432373</ele>
<time>2025-10-14T16:58:39.426Z</time>
</trkpt>
<trkpt lat="31.7468420" lon="35.1067930">
<ele>545.874207</ele>
<time>2025-10-14T16:58:47.291Z</time>
</trkpt>
<trkpt lat="31.7467830" lon="35.1069940">
<ele>546.425415</ele>
<time>2025-10-14T16:58:57.100Z</time>
</trkpt>
<trkpt lat="31.7466800" lon="35.1071690">
<ele>546.977051</ele>
<time>2025-10-14T16:59:06.644Z</time>
</trkpt>
<trkpt lat="31.7465370" lon="35.1072990">
<ele>547.528015</ele>
<time>2025-10-14T16:59:15.947Z</time>
</trkpt>
<trkpt lat="31.7462990" lon="35.1074020">
<ele>548.300964</ele>
<time>2025-10-14T16:59:28.547Z</time>
</trkpt>
<trkpt lat="31.7458370" lon="35.1074960">
<ele>548.497803</ele>
<time>2025-10-14T16:59:47.786Z</time>
</trkpt>
<trkpt lat="31.7451010" lon="35.1077080">
<ele>546.532043</ele>
<time>2025-10-14T17:00:07.791Z</time>
</trkpt>
<trkpt lat="31.7449440" lon="35.1077260">
<ele>546.122803</ele>
<time>2025-10-14T17:00:11.598Z</time>
</trkpt>
<trkpt lat="31.7444900" lon="35.1077800">
<ele>544.939026</ele>
<time>2025-10-14T17:00:22.540Z</time>
</trkpt>
<trkpt lat="31.7443210" lon="35.1078560">
<ele>544.469666</ele>
<time>2025-10-14T17:00:26.970Z</time>
</trkpt>
<trkpt lat="31.7442090" lon="35.1079630">
<ele>543.796326</ele>
<time>2025-10-14T17:00:30.616Z</time>
</trkpt>
<trkpt lat="31.7441170" lon="35.1080950">
<ele>543.048462</ele>
<time>2025-10-14T17:00:34.282Z</time>
</trkpt>
<trkpt lat="31.7439520" lon="35.1085180">
<ele>541.009033</ele>
<time>2025-10-14T17:00:44.228Z</time>
</trkpt>
<trkpt lat="31.7438460" lon="35.1087480">
<ele>539.862549</ele>
<time>2025-10-14T17:00:49.782Z</time>
</trkpt>
<trkpt lat="31.7437340" lon="35.1091110">
<ele>538.170288</ele>
<time>2025-10-14T17:00:57.706Z</time>
</trkpt>
<trkpt lat="31.7436450" lon="35.1092070">
<ele>537.547974</ele>
<time>2025-10-14T17:01:00.532Z</time>
</trkpt>
<trkpt lat="31.7435780" lon="35.1092260">
<ele>537.192810</ele>
<time>2025-10-14T17:01:02.144Z</time>
</trkpt>
<trkpt lat="31.7434550" lon="35.1091820">
<ele>536.530273</ele>
<time>2025-10-14T17:01:05.113Z</time>
</trkpt>
<trkpt lat="31.7430840" lon="35.1089420">
<ele>534.406860</ele>
<time>2025-10-14T17:01:14.783Z</time>
</trkpt>
<trkpt lat="31.7428020" lon="35.1088180">
<ele>532.971802</ele>
<time>2025-10-14T17:01:21.574Z</time>
</trkpt>
<trkpt lat="31.7426150" lon="35.1087980">
<ele>532.076782</ele>
<time>2025-10-14T17:01:25.736Z</time>
</trkpt>
<trkpt lat="31.7425240" lon="35.1088340">
<ele>531.619141</ele>
<time>2025-10-14T17:01:27.880Z</time>
</trkpt>
<trkpt lat="31.7424700" lon="35.1088980">
<ele>531.253662</ele>
<time>2025-10-14T17:01:29.607Z</time>
</trkpt>
<trkpt lat="31.7424380" lon="35.1089930">
<ele>530.839478</ele>
<time>2025-10-14T17:01:31.578Z</time>
</trkpt>
<trkpt lat="31.7423090" lon="35.1097690">
<ele>527.634338</ele>
<time>2025-10-14T17:01:48.068Z</time>
</trkpt>
<trkpt lat="31.7421300" lon="35.1103550">
<ele>526.995239</ele>
<time>2025-10-14T17:02:06.432Z</time>
</trkpt>
<trkpt lat="31.7419440" lon="35.1107710">
<ele>527.573669</ele>
<time>2025-10-14T17:02:23.916Z</time>
</trkpt>
<trkpt lat="31.7417030" lon="35.1111260">
<ele>528.132690</ele>
<time>2025-10-14T17:02:42.175Z</time>
</trkpt>
<trkpt lat="31.7412850" lon="35.1115210">
<ele>528.908752</ele>
<time>2025-10-14T17:03:05.814Z</time>
</trkpt>
<trkpt lat="31.7409640" lon="35.1117970">
<ele>528.904175</ele>
<time>2025-10-14T17:03:20.675Z</time>
</trkpt>
<trkpt lat="31.7408240" lon="35.1118890">
<ele>528.722046</ele>
<time>2025-10-14T17:03:25.920Z</time>
</trkpt>
<trkpt lat="31.7402780" lon="35.1121500">
<ele>528.052917</ele>
<time>2025-10-14T17:03:43.461Z</time>
</trkpt>
<trkpt lat="31.7394970" lon="35.1124460">
<ele>527.121338</ele>
<time>2025-10-14T17:04:05.288Z</time>
</trkpt>
<trkpt lat="31.7391370" lon="35.1126320">
<ele>526.421936</ele>
<time>2025-10-14T17:04:15.337Z</time>
</trkpt>
<trkpt lat="31.7387800" lon="35.1129100">
<ele>525.657715</ele>
<time>2025-10-14T17:04:26.525Z</time>
</trkpt>
<trkpt lat="31.7383830" lon="35.1133280">
<ele>524.706665</ele>
<time>2025-10-14T17:04:41.303Z</time>
</trkpt>
<trkpt lat="31.7381460" lon="35.1136860">
<ele>524.018005</ele>
<time>2025-10-14T17:04:52.972Z</time>
</trkpt>
<trkpt lat="31.7378410" lon="35.1142960">
<ele>524.314453</ele>
<time>2025-10-14T17:05:14.345Z</time>
</trkpt>
<trkpt lat="31.7376680" lon="35.1148150">
<ele>524.672424</ele>
<time>2025-10-14T17:05:32.784Z</time>
</trkpt>
<trkpt lat="31.7376100" lon="35.1153010">
<ele>524.987610</ele>
<time>2025-10-14T17:05:48.986Z</time>
</trkpt>
<trkpt lat="31.7375900" lon="35.1154740">
<ele>525.099731</ele>
<time>2025-10-14T17:05:54.440Z</time>
</trkpt>
<trkpt lat="31.7373260" lon="35.1161950">
<ele>525.300415</ele>
<time>2025-10-14T17:06:16.772Z</time>
</trkpt>
<trkpt lat="31.7372390" lon="35.1163760">
<ele>525.314331</ele>
<time>2025-10-14T17:06:22.175Z</time>
</trkpt>
<trkpt lat="31.7366100" lon="35.1173410">
<ele>525.395752</ele>
<time>2025-10-14T17:06:52.251Z</time>
</trkpt>
<trkpt lat="31.7365210" lon="35.1175340">
<ele>525.698364</ele>
<time>2025-10-14T17:06:57.944Z</time>
</trkpt>
<trkpt lat="31.7364320" lon="35.1177750">
<ele>527.072693</ele>
<time>2025-10-14T17:07:06.672Z</time>
</trkpt>
<trkpt lat="31.7363000" lon="35.1185700">
<ele>531.309692</ele>
<time>2025-10-14T17:07:52.540Z</time>
</trkpt>
<trkpt lat="31.7362280" lon="35.1185700">
<ele>531.752502</ele>
<time>2025-10-14T17:07:58.671Z</time>
</trkpt>
<trkpt lat="31.7360910" lon="35.1186300">
<ele>532.651672</ele>
<time>2025-10-14T17:08:10.218Z</time>
</trkpt>
<trkpt lat="31.7360030" lon="35.1186700">
<ele>533.231934</ele>
<time>2025-10-14T17:08:17.166Z</time>
</trkpt>
<trkpt lat="31.7358990" lon="35.1187430">
<ele>533.976868</ele>
<time>2025-10-14T17:08:25.962Z</time>
</trkpt>
<trkpt lat="31.7358210" lon="35.1187970">
<ele>534.533630</ele>
<time>2025-10-14T17:08:31.987Z</time>
</trkpt>
<trkpt lat="31.7355640" lon="35.1189780">
<ele>536.376099</ele>
<time>2025-10-14T17:08:52.939Z</time>
</trkpt>
<trkpt lat="31.7354370" lon="35.1190630">
<ele>537.245911</ele>
<time>2025-10-14T17:09:03.592Z</time>
</trkpt>
<trkpt lat="31.7353710" lon="35.1190600">
<ele>537.637573</ele>
<time>2025-10-14T17:09:08.826Z</time>
</trkpt>
<trkpt lat="31.7352560" lon="35.1189550">
<ele>538.500793</ele>
<time>2025-10-14T17:09:19.967Z</time>
</trkpt>
<trkpt lat="31.7352790" lon="35.1188870">
<ele>538.869873</ele>
<time>2025-10-14T17:09:24.350Z</time>
</trkpt>
<trkpt lat="31.7355550" lon="35.1186640">
<ele>540.855408</ele>
<time>2025-10-14T17:09:48.407Z</time>
</trkpt>
<trkpt lat="31.7356000" lon="35.1185300">
<ele>541.581909</ele>
<time>2025-10-14T17:09:56.260Z</time>
</trkpt>
<trkpt lat="31.7356350" lon="35.1172710">
<ele>548.082703</ele>
<time>2025-10-14T17:10:48.550Z</time>
</trkpt>
<trkpt lat="31.7360260" lon="35.1159880">
<ele>556.231567</ele>
<time>2025-10-14T17:12:09.377Z</time>
</trkpt>
<trkpt lat="31.7360940" lon="35.1155480">
<ele>558.905457</ele>
<time>2025-10-14T17:12:39.065Z</time>
</trkpt>
<trkpt lat="31.7360620" lon="35.1152870">
<ele>560.280762</ele>
<time>2025-10-14T17:12:54.409Z</time>
</trkpt>
<trkpt lat="31.7358100" lon="35.1148000">
<ele>562.713318</ele>
<time>2025-10-14T17:13:26.798Z</time>
</trkpt>
<trkpt lat="31.7357800" lon="35.1148890">
<ele>563.121887</ele>
<time>2025-10-14T17:13:32.160Z</time>
</trkpt>
<trkpt lat="31.7357780" lon="35.1150010">
<ele>563.599915</ele>
<time>2025-10-14T17:13:38.132Z</time>
</trkpt>
<trkpt lat="31.7359020" lon="35.1153290">
<ele>565.131653</ele>
<time>2025-10-14T17:13:56.710Z</time>
</trkpt>
<trkpt lat="31.7358910" lon="35.1155230">
<ele>565.961365</ele>
<time>2025-10-14T17:14:06.205Z</time>
</trkpt>
<trkpt lat="31.7354790" lon="35.1164660">
<ele>569.527527</ele>
<time>2025-10-14T17:14:42.321Z</time>
</trkpt>
<trkpt lat="31.7354170" lon="35.1166710">
<ele>569.927246</ele>
<time>2025-10-14T17:14:49.892Z</time>
</trkpt>
<trkpt lat="31.7350930" lon="35.1172580">
<ele>571.212891</ele>
<time>2025-10-14T17:15:12.479Z</time>
</trkpt>
<trkpt lat="31.7347250" lon="35.1177200">
<ele>572.375793</ele>
<time>2025-10-14T17:15:34.110Z</time>
</trkpt>
<trkpt lat="31.7344650" lon="35.1179390">
<ele>574.398010</ele>
<time>2025-10-14T17:15:50.207Z</time>
</trkpt>
<trkpt lat="31.7341970" lon="35.1180640">
<ele>577.214539</ele>
<time>2025-10-14T17:16:07.277Z</time>
</trkpt>
<trkpt lat="31.7338820" lon="35.1180880">
<ele>580.298157</ele>
<time>2025-10-14T17:16:29.266Z</time>
</trkpt>
<trkpt lat="31.7332570" lon="35.1180420">
<ele>586.415710</ele>
<time>2025-10-14T17:17:24.972Z</time>
</trkpt>
<trkpt lat="31.7326920" lon="35.1179580">
<ele>593.003479</ele>
<time>2025-10-14T17:18:27.371Z</time>
</trkpt>
<trkpt lat="31.7319090" lon="35.1177060">
<ele>605.658264</ele>
<time>2025-10-14T17:20:03.757Z</time>
</trkpt>
<trkpt lat="31.7307360" lon="35.1176740">
<ele>620.094116</ele>
<time>2025-10-14T17:22:13.798Z</time>
</trkpt>
<trkpt lat="31.7305410" lon="35.1177020">
<ele>621.067627</ele>
<time>2025-10-14T17:22:28.337Z</time>
</trkpt>
<trkpt lat="31.7304780" lon="35.1177500">
<ele>621.439697</ele>
<time>2025-10-14T17:22:32.387Z</time>
</trkpt>
<trkpt lat="31.7304160" lon="35.1178660">
<ele>622.017212</ele>
<time>2025-10-14T17:22:38.266Z</time>
</trkpt>
<trkpt lat="31.7305030" lon="35.1180070">
<ele>622.751465</ele>
<time>2025-10-14T17:22:44.370Z</time>
</trkpt>
<trkpt lat="31.7305670" lon="35.1180650">
<ele>623.151917</ele>
<time>2025-10-14T17:22:48.014Z</time>
</trkpt>
<trkpt lat="31.7310030" lon="35.1182790">
<ele>625.493408</ele>
<time>2025-10-14T17:23:05.070Z</time>
</trkpt>
<trkpt lat="31.7314320" lon="35.1186170">
<ele>626.944885</ele>
<time>2025-10-14T17:23:18.385Z</time>
</trkpt>
<trkpt lat="31.7317740" lon="35.1187980">
<ele>626.355835</ele>
<time>2025-10-14T17:23:27.650Z</time>
</trkpt>
<trkpt lat="31.7324180" lon="35.1193420">
<ele>625.110413</ele>
<time>2025-10-14T17:23:50.027Z</time>
</trkpt>
<trkpt lat="31.7329100" lon="35.1197220">
<ele>624.593933</ele>
<time>2025-10-14T17:24:08.309Z</time>
</trkpt>
<trkpt lat="31.7340670" lon="35.1204980">
<ele>626.754822</ele>
<time>2025-10-14T17:24:55.597Z</time>
</trkpt>
<trkpt lat="31.7343750" lon="35.1207790">
<ele>627.685974</ele>
<time>2025-10-14T17:25:16.402Z</time>
</trkpt>
<trkpt lat="31.7344190" lon="35.1208440">
<ele>628.214478</ele>
<time>2025-10-14T17:25:20.575Z</time>
</trkpt>
<trkpt lat="31.7344270" lon="35.1209490">
<ele>628.885071</ele>
<time>2025-10-14T17:25:25.871Z</time>
</trkpt>
<trkpt lat="31.7343850" lon="35.1210030">
<ele>629.350525</ele>
<time>2025-10-14T17:25:29.771Z</time>
</trkpt>
<trkpt lat="31.7343160" lon="35.1209990">
<ele>629.867249</ele>
<time>2025-10-14T17:25:34.122Z</time>
</trkpt>
<trkpt lat="31.7339290" lon="35.1206780">
<ele>633.409668</ele>
<time>2025-10-14T17:26:06.505Z</time>
</trkpt>
<trkpt lat="31.7321150" lon="35.1196670">
<ele>650.317871</ele>
<time>2025-10-14T17:28:41.038Z</time>
</trkpt>
<trkpt lat="31.7316180" lon="35.1193620">
<ele>655.546509</ele>
<time>2025-10-14T17:29:25.899Z</time>
</trkpt>
<trkpt lat="31.7305320" lon="35.1189320">
<ele>666.361694</ele>
<time>2025-10-14T17:30:59.332Z</time>
</trkpt>
<trkpt lat="31.7301420" lon="35.1186960">
<ele>670.512512</ele>
<time>2025-10-14T17:31:34.281Z</time>
</trkpt>
<trkpt lat="31.7299610" lon="35.1185430">
<ele>672.622192</ele>
<time>2025-10-14T17:31:51.554Z</time>
</trkpt>
<trkpt lat="31.7297040" lon="35.1183810">
<ele>675.274231</ele>
<time>2025-10-14T17:32:13.694Z</time>
</trkpt>
<trkpt lat="31.7286410" lon="35.1179010">
<ele>684.650513</ele>
<time>2025-10-14T17:33:37.067Z</time>
</trkpt>
<trkpt lat="31.7283170" lon="35.1178270">
<ele>687.368347</ele>
<time>2025-10-14T17:34:01.273Z</time>
</trkpt>
<trkpt lat="31.7280230" lon="35.1178250">
<ele>689.651672</ele>
<time>2025-10-14T17:34:22.442Z</time>
</trkpt>
<trkpt lat="31.7272430" lon="35.1180230">
<ele>694.095703</ele>
<time>2025-10-14T17:35:17.047Z</time>
</trkpt>
<trkpt lat="31.7264440" lon="35.1181160">
<ele>698.567078</ele>
<time>2025-10-14T17:36:05.546Z</time>
</trkpt>
<trkpt lat="31.7261000" lon="35.1180810">
<ele>698.924194</ele>
<time>2025-10-14T17:36:18.134Z</time>
</trkpt>
<trkpt lat="31.7260280" lon="35.1180740">
<ele>698.758362</ele>
<time>2025-10-14T17:36:20.210Z</time>
</trkpt>
<trkpt lat="31.7258160" lon="35.1179780">
<ele>698.237183</ele>
<time>2025-10-14T17:36:26.524Z</time>
</trkpt>
<trkpt lat="31.7256850" lon="35.1180060">
<ele>697.931702</ele>
<time>2025-10-14T17:36:30.171Z</time>
</trkpt>
<trkpt lat="31.7255320" lon="35.1180260">
<ele>697.578552</ele>
<time>2025-10-14T17:36:34.250Z</time>
</trkpt>
<trkpt lat="31.7256850" lon="35.1180060">
<ele>697.225403</ele>
<time>2025-10-14T17:36:38.172Z</time>
</trkpt>
<trkpt lat="31.7257030" lon="35.1179080">
<ele>697.029724</ele>
<time>2025-10-14T17:36:40.233Z</time>
</trkpt>
<trkpt lat="31.7255930" lon="35.1176430">
<ele>696.454407</ele>
<time>2025-10-14T17:36:46.369Z</time>
</trkpt>
<trkpt lat="31.7255880" lon="35.1175570">
<ele>696.286133</ele>
<time>2025-10-14T17:36:48.140Z</time>
</trkpt>
<trkpt lat="31.7256130" lon="35.1174660">
<ele>696.099548</ele>
<time>2025-10-14T17:36:50.101Z</time>
</trkpt>
<trkpt lat="31.7256320" lon="35.1173870">
<ele>695.939392</ele>
<time>2025-10-14T17:36:51.789Z</time>
</trkpt>
<trkpt lat="31.7257000" lon="35.1173370">
<ele>695.755310</ele>
<time>2025-10-14T17:36:53.747Z</time>
</trkpt>
<trkpt lat="31.7257770" lon="35.1173170">
<ele>695.574463</ele>
<time>2025-10-14T17:36:55.681Z</time>
</trkpt>
<trkpt lat="31.7259770" lon="35.1173720">
<ele>695.312561</ele>
<time>2025-10-14T17:37:00.665Z</time>
</trkpt>
<trkpt lat="31.7260750" lon="35.1173290">
<ele>695.404419</ele>
<time>2025-10-14T17:37:03.112Z</time>
</trkpt>
<trkpt lat="31.7263890" lon="35.1172780">
<ele>695.682678</ele>
<time>2025-10-14T17:37:11.224Z</time>
</trkpt>
<trkpt lat="31.7264900" lon="35.1173020">
<ele>695.773193</ele>
<time>2025-10-14T17:37:14.313Z</time>
</trkpt>
<trkpt lat="31.7265560" lon="35.1172910">
<ele>695.831665</ele>
<time>2025-10-14T17:37:16.540Z</time>
</trkpt>
<trkpt lat="31.7267320" lon="35.1172000">
<ele>696.000427</ele>
<time>2025-10-14T17:37:23.822Z</time>
</trkpt>
<trkpt lat="31.7269030" lon="35.1171950">
<ele>696.150635</ele>
<time>2025-10-14T17:37:30.760Z</time>
</trkpt>
<trkpt lat="31.7272810" lon="35.1169590">
<ele>696.526428</ele>
<time>2025-10-14T17:37:49.830Z</time>
</trkpt>
<trkpt lat="31.7273890" lon="35.1168460">
<ele>696.653381</ele>
<time>2025-10-14T17:37:57.081Z</time>
</trkpt>
<trkpt lat="31.7274390" lon="35.1168190">
<ele>696.701660</ele>
<time>2025-10-14T17:37:59.963Z</time>
</trkpt>
<trkpt lat="31.7275710" lon="35.1168220">
<ele>696.817627</ele>
<time>2025-10-14T17:38:07.801Z</time>
</trkpt>
<trkpt lat="31.7276920" lon="35.1167600">
<ele>697.571655</ele>
<time>2025-10-14T17:38:16.370Z</time>
</trkpt>
<trkpt lat="31.7277720" lon="35.1166340">
<ele>698.440552</ele>
<time>2025-10-14T17:38:25.354Z</time>
</trkpt>
<trkpt lat="31.7278540" lon="35.1165560">
<ele>699.125916</ele>
<time>2025-10-14T17:38:32.384Z</time>
</trkpt>
<trkpt lat="31.7279770" lon="35.1165560">
<ele>699.925049</ele>
<time>2025-10-14T17:38:40.819Z</time>
</trkpt>
<trkpt lat="31.7281990" lon="35.1164200">
<ele>701.551575</ele>
<time>2025-10-14T17:38:57.955Z</time>
</trkpt>
<trkpt lat="31.7284240" lon="35.1163420">
<ele>703.075745</ele>
<time>2025-10-14T17:39:13.589Z</time>
</trkpt>
<trkpt lat="31.7284290" lon="35.1162230">
<ele>703.734131</ele>
<time>2025-10-14T17:39:20.335Z</time>
</trkpt>
<trkpt lat="31.7283650" lon="35.1161810">
<ele>704.210388</ele>
<time>2025-10-14T17:39:25.141Z</time>
</trkpt>
<trkpt lat="31.7282280" lon="35.1161590">
<ele>705.108826</ele>
<time>2025-10-14T17:39:34.031Z</time>
</trkpt>
<trkpt lat="31.7281100" lon="35.1162400">
<ele>705.996643</ele>
<time>2025-10-14T17:39:42.881Z</time>
</trkpt>
<trkpt lat="31.7279410" lon="35.1162850">
<ele>707.122559</ele>
<time>2025-10-14T17:39:54.326Z</time>
</trkpt>
<trkpt lat="31.7278330" lon="35.1162930">
<ele>707.825684</ele>
<time>2025-10-14T17:40:01.448Z</time>
</trkpt>
<trkpt lat="31.7278700" lon="35.1162510">
<ele>708.159790</ele>
<time>2025-10-14T17:40:04.937Z</time>
</trkpt>
<trkpt lat="31.7281690" lon="35.1161030">
<ele>710.178467</ele>
<time>2025-10-14T17:40:26.594Z</time>
</trkpt>
<trkpt lat="31.7283920" lon="35.1159580">
<ele>711.749695</ele>
<time>2025-10-14T17:40:42.820Z</time>
</trkpt>
<trkpt lat="31.7285290" lon="35.1159290">
<ele>712.607971</ele>
<time>2025-10-14T17:40:50.994Z</time>
</trkpt>
<trkpt lat="31.7286210" lon="35.1158700">
<ele>713.254089</ele>
<time>2025-10-14T17:40:57.109Z</time>
</trkpt>
<trkpt lat="31.7287800" lon="35.1158590">
<ele>714.236145</ele>
<time>2025-10-14T17:41:06.581Z</time>
</trkpt>
<trkpt lat="31.7288760" lon="35.1157760">
<ele>714.970886</ele>
<time>2025-10-14T17:41:13.643Z</time>
</trkpt>
<trkpt lat="31.7291450" lon="35.1156850">
<ele>716.696716</ele>
<time>2025-10-14T17:41:30.869Z</time>
</trkpt>
<trkpt lat="31.7292590" lon="35.1155670">
<ele>717.633240</ele>
<time>2025-10-14T17:41:40.687Z</time>
</trkpt>
<trkpt lat="31.7295080" lon="35.1155130">
<ele>719.194336</ele>
<time>2025-10-14T17:41:56.925Z</time>
</trkpt>
<trkpt lat="31.7297500" lon="35.1154060">
<ele>720.600403</ele>
<time>2025-10-14T17:42:13.415Z</time>
</trkpt>
<trkpt lat="31.7299390" lon="35.1152230">
<ele>721.869080</ele>
<time>2025-10-14T17:42:28.748Z</time>
</trkpt>
<trkpt lat="31.7299390" lon="35.1151910">
<ele>722.010132</ele>
<time>2025-10-14T17:42:30.418Z</time>
</trkpt>
<trkpt lat="31.7298800" lon="35.1151380">
<ele>722.394836</ele>
<time>2025-10-14T17:42:34.971Z</time>
</trkpt>
<trkpt lat="31.7298940" lon="35.1150920">
<ele>722.610168</ele>
<time>2025-10-14T17:42:37.591Z</time>
</trkpt>
<trkpt lat="31.7299730" lon="35.1150520">
<ele>723.055847</ele>
<time>2025-10-14T17:42:42.771Z</time>
</trkpt>
<trkpt lat="31.7299960" lon="35.1150270">
<ele>723.218140</ele>
<time>2025-10-14T17:42:44.662Z</time>
</trkpt>
<trkpt lat="31.7299730" lon="35.1149950">
<ele>723.402832</ele>
<time>2025-10-14T17:42:46.927Z</time>
</trkpt>
<trkpt lat="31.7297380" lon="35.1150380">
<ele>724.635132</ele>
<time>2025-10-14T17:43:00.900Z</time>
</trkpt>
<trkpt lat="31.7295720" lon="35.1151050">
<ele>725.544556</ele>
<time>2025-10-14T17:43:10.955Z</time>
</trkpt>
<trkpt lat="31.7294740" lon="35.1151190">
<ele>726.056091</ele>
<time>2025-10-14T17:43:16.517Z</time>
</trkpt>
<trkpt lat="31.7294120" lon="35.1151590">
<ele>726.422546</ele>
<time>2025-10-14T17:43:20.388Z</time>
</trkpt>
<trkpt lat="31.7290220" lon="35.1151910">
<ele>728.448242</ele>
<time>2025-10-14T17:43:41.229Z</time>
</trkpt>
<trkpt lat="31.7289100" lon="35.1152500">
<ele>729.015747</ele>
<time>2025-10-14T17:43:47.327Z</time>
</trkpt>
<trkpt lat="31.7288970" lon="35.1152180">
<ele>729.102600</ele>
<time>2025-10-14T17:43:48.806Z</time>
</trkpt>
<trkpt lat="31.7289720" lon="35.1151560">
<ele>729.366577</ele>
<time>2025-10-14T17:43:53.236Z</time>
</trkpt>
<trkpt lat="31.7289900" lon="35.1150920">
<ele>729.531738</ele>
<time>2025-10-14T17:43:56.135Z</time>
</trkpt>
<trkpt lat="31.7289130" lon="35.1150620">
<ele>729.765381</ele>
<time>2025-10-14T17:44:00.124Z</time>
</trkpt>
<trkpt lat="31.7287640" lon="35.1151290">
<ele>730.224854</ele>
<time>2025-10-14T17:44:08.039Z</time>
</trkpt>
<trkpt lat="31.7286140" lon="35.1151210">
<ele>730.657227</ele>
<time>2025-10-14T17:44:15.527Z</time>
</trkpt>
<trkpt lat="31.7283900" lon="35.1152150">
<ele>731.342224</ele>
<time>2025-10-14T17:44:27.147Z</time>
</trkpt>
<trkpt lat="31.7281640" lon="35.1152720">
<ele>732.007935</ele>
<time>2025-10-14T17:44:37.810Z</time>
</trkpt>
<trkpt lat="31.7280590" lon="35.1152690">
<ele>732.310425</ele>
<time>2025-10-14T17:44:42.512Z</time>
</trkpt>
<trkpt lat="31.7280480" lon="35.1152370">
<ele>732.394958</ele>
<time>2025-10-14T17:44:43.812Z</time>
</trkpt>
<trkpt lat="31.7280800" lon="35.1152040">
<ele>732.517517</ele>
<time>2025-10-14T17:44:45.695Z</time>
</trkpt>
<trkpt lat="31.7280780" lon="35.1151670">
<ele>732.608276</ele>
<time>2025-10-14T17:44:47.175Z</time>
</trkpt>
<trkpt lat="31.7280430" lon="35.1151610">
<ele>732.710205</ele>
<time>2025-10-14T17:44:48.761Z</time>
</trkpt>
<trkpt lat="31.7278750" lon="35.1151480">
<ele>733.195068</ele>
<time>2025-10-14T17:44:55.985Z</time>
</trkpt>
<trkpt lat="31.7276670" lon="35.1150570">
<ele>733.834290</ele>
<time>2025-10-14T17:45:05.020Z</time>
</trkpt>
<trkpt lat="31.7274800" lon="35.1150920">
<ele>734.333435</ele>
<time>2025-10-14T17:45:12.493Z</time>
</trkpt>
<trkpt lat="31.7273840" lon="35.1151510">
<ele>734.591980</ele>
<time>2025-10-14T17:45:16.598Z</time>
</trkpt>
<trkpt lat="31.7271510" lon="35.1151170">
<ele>735.152283</ele>
<time>2025-10-14T17:45:25.655Z</time>
</trkpt>
<trkpt lat="31.7270670" lon="35.1151210">
<ele>735.352966</ele>
<time>2025-10-14T17:45:28.855Z</time>
</trkpt>
<trkpt lat="31.7270740" lon="35.1150520">
<ele>735.494019</ele>
<time>2025-10-14T17:45:31.261Z</time>
</trkpt>
<trkpt lat="31.7270530" lon="35.1150110">
<ele>735.591187</ele>
<time>2025-10-14T17:45:32.775Z</time>
</trkpt>
<trkpt lat="31.7266260" lon="35.1150390">
<ele>736.611877</ele>
<time>2025-10-14T17:45:49.450Z</time>
</trkpt>
<trkpt lat="31.7265670" lon="35.1149760">
<ele>736.802124</ele>
<time>2025-10-14T17:45:52.715Z</time>
</trkpt>
<trkpt lat="31.7262610" lon="35.1149080">
<ele>737.545410</ele>
<time>2025-10-14T17:46:06.648Z</time>
</trkpt>
<trkpt lat="31.7261300" lon="35.1148450">
<ele>737.883118</ele>
<time>2025-10-14T17:46:13.578Z</time>
</trkpt>
<trkpt lat="31.7260860" lon="35.1147770">
<ele>738.056580</ele>
<time>2025-10-14T17:46:17.208Z</time>
</trkpt>
<trkpt lat="31.7259980" lon="35.1147330">
<ele>738.284851</ele>
<time>2025-10-14T17:46:21.997Z</time>
</trkpt>
<trkpt lat="31.7259590" lon="35.1144760">
<ele>739.286194</ele>
<time>2025-10-14T17:46:33.764Z</time>
</trkpt>
<trkpt lat="31.7259650" lon="35.1143640">
<ele>739.774841</ele>
<time>2025-10-14T17:46:39.178Z</time>
</trkpt>
<trkpt lat="31.7258870" lon="35.1141230">
<ele>740.897339</ele>
<time>2025-10-14T17:46:52.007Z</time>
</trkpt>
<trkpt lat="31.7258530" lon="35.1138970">
<ele>741.896545</ele>
<time>2025-10-14T17:47:03.978Z</time>
</trkpt>
<trkpt lat="31.7258930" lon="35.1138810">
<ele>742.112793</ele>
<time>2025-10-14T17:47:06.602Z</time>
</trkpt>
<trkpt lat="31.7259980" lon="35.1140070">
<ele>742.880676</ele>
<time>2025-10-14T17:47:16.036Z</time>
</trkpt>
<trkpt lat="31.7260340" lon="35.1139900">
<ele>743.079285</ele>
<time>2025-10-14T17:47:18.428Z</time>
</trkpt>
<trkpt lat="31.7260500" lon="35.1139370">
<ele>743.324097</ele>
<time>2025-10-14T17:47:21.439Z</time>
</trkpt>
<trkpt lat="31.7260360" lon="35.1137290">
<ele>744.232422</ele>
<time>2025-10-14T17:47:32.606Z</time>
</trkpt>
<trkpt lat="31.7259850" lon="35.1135350">
<ele>745.116394</ele>
<time>2025-10-14T17:47:43.376Z</time>
</trkpt>
<trkpt lat="31.7260220" lon="35.1134880">
<ele>745.395142</ele>
<time>2025-10-14T17:47:46.726Z</time>
</trkpt>
<trkpt lat="31.7260240" lon="35.1134440">
<ele>745.587036</ele>
<time>2025-10-14T17:47:49.000Z</time>
</trkpt>
<trkpt lat="31.7259130" lon="35.1132390">
<ele>746.644958</ele>
<time>2025-10-14T17:48:01.443Z</time>
</trkpt>
<trkpt lat="31.7260560" lon="35.1131310">
<ele>747.514832</ele>
<time>2025-10-14T17:48:11.136Z</time>
</trkpt>
<trkpt lat="31.7260420" lon="35.1130750">
<ele>747.661987</ele>
<time>2025-10-14T17:48:13.830Z</time>
</trkpt>
<trkpt lat="31.7259650" lon="35.1129980">
<ele>747.833923</ele>
<time>2025-10-14T17:48:19.297Z</time>
</trkpt>
<trkpt lat="31.7256690" lon="35.1128910">
<ele>748.360718</ele>
<time>2025-10-14T17:48:35.024Z</time>
</trkpt>
<trkpt lat="31.7255320" lon="35.1127530">
<ele>748.667603</ele>
<time>2025-10-14T17:48:43.357Z</time>
</trkpt>
<trkpt lat="31.7254560" lon="35.1127160">
<ele>748.807556</ele>
<time>2025-10-14T17:48:46.932Z</time>
</trkpt>
<trkpt lat="31.7252540" lon="35.1126690">
<ele>749.157837</ele>
<time>2025-10-14T17:48:55.359Z</time>
</trkpt>
<trkpt lat="31.7251560" lon="35.1126810">
<ele>749.325439</ele>
<time>2025-10-14T17:48:59.081Z</time>
</trkpt>
<trkpt lat="31.7250670" lon="35.1125920">
<ele>749.524170</ele>
<time>2025-10-14T17:49:03.323Z</time>
</trkpt>
<trkpt lat="31.7250030" lon="35.1125640">
<ele>749.640320</ele>
<time>2025-10-14T17:49:05.708Z</time>
</trkpt>
<trkpt lat="31.7248580" lon="35.1125940">
<ele>749.890808</ele>
<time>2025-10-14T17:49:10.599Z</time>
</trkpt>
<trkpt lat="31.7246860" lon="35.1126710">
<ele>750.203857</ele>
<time>2025-10-14T17:49:16.374Z</time>
</trkpt>
<trkpt lat="31.7246300" lon="35.1127620">
<ele>750.366394</ele>
<time>2025-10-14T17:49:19.260Z</time>
</trkpt>
<trkpt lat="31.7243560" lon="35.1128300">
<ele>750.520752</ele>
<time>2025-10-14T17:49:27.410Z</time>
</trkpt>
<trkpt lat="31.7242210" lon="35.1128370">
<ele>750.326172</ele>
<time>2025-10-14T17:49:31.228Z</time>
</trkpt>
<trkpt lat="31.7241000" lon="35.1127740">
<ele>750.135498</ele>
<time>2025-10-14T17:49:34.928Z</time>
</trkpt>
<trkpt lat="31.7239940" lon="35.1127500">
<ele>749.980042</ele>
<time>2025-10-14T17:49:37.899Z</time>
</trkpt>
<trkpt lat="31.7238380" lon="35.1127830">
<ele>749.751831</ele>
<time>2025-10-14T17:49:42.338Z</time>
</trkpt>
<trkpt lat="31.7236410" lon="35.1127300">
<ele>749.460693</ele>
<time>2025-10-14T17:49:48.051Z</time>
</trkpt>
<trkpt lat="31.7234580" lon="35.1125570">
<ele>749.122559</ele>
<time>2025-10-14T17:49:54.786Z</time>
</trkpt>
<trkpt lat="31.7232480" lon="35.1124750">
<ele>748.803833</ele>
<time>2025-10-14T17:50:01.241Z</time>
</trkpt>
<trkpt lat="31.7231530" lon="35.1123160">
<ele>748.565796</ele>
<time>2025-10-14T17:50:06.056Z</time>
</trkpt>
<trkpt lat="31.7231010" lon="35.1122770">
<ele>748.477051</ele>
<time>2025-10-14T17:50:07.841Z</time>
</trkpt>
<trkpt lat="31.7230310" lon="35.1121530">
<ele>748.294739</ele>
<time>2025-10-14T17:50:11.464Z</time>
</trkpt>
<trkpt lat="31.7229860" lon="35.1120150">
<ele>748.113647</ele>
<time>2025-10-14T17:50:15.003Z</time>
</trkpt>
<trkpt lat="31.7229600" lon="35.1117110">
<ele>747.201721</ele>
<time>2025-10-14T17:50:22.041Z</time>
</trkpt>
<trkpt lat="31.7228840" lon="35.1115060">
<ele>746.492859</ele>
<time>2025-10-14T17:50:27.016Z</time>
</trkpt>
<trkpt lat="31.7226800" lon="35.1111840">
<ele>745.220154</ele>
<time>2025-10-14T17:50:35.585Z</time>
</trkpt>
<trkpt lat="31.7226900" lon="35.1110930">
<ele>744.929321</ele>
<time>2025-10-14T17:50:37.489Z</time>
</trkpt>
<trkpt lat="31.7226240" lon="35.1109220">
<ele>744.334106</ele>
<time>2025-10-14T17:50:41.314Z</time>
</trkpt>
<trkpt lat="31.7225370" lon="35.1109270">
<ele>744.009521</ele>
<time>2025-10-14T17:50:43.394Z</time>
</trkpt>
<trkpt lat="31.7224930" lon="35.1109710">
<ele>743.794250</ele>
<time>2025-10-14T17:50:44.760Z</time>
</trkpt>
<trkpt lat="31.7224810" lon="35.1110370">
<ele>743.580261</ele>
<time>2025-10-14T17:50:46.094Z</time>
</trkpt>
<trkpt lat="31.7225070" lon="35.1111930">
<ele>743.076355</ele>
<time>2025-10-14T17:50:49.265Z</time>
</trkpt>
<trkpt lat="31.7224790" lon="35.1112960">
<ele>742.733582</ele>
<time>2025-10-14T17:50:51.404Z</time>
</trkpt>
<trkpt lat="31.7223800" lon="35.1114410">
<ele>742.144226</ele>
<time>2025-10-14T17:50:55.156Z</time>
</trkpt>
<trkpt lat="31.7223300" lon="35.1115810">
<ele>741.662964</ele>
<time>2025-10-14T17:50:58.297Z</time>
</trkpt>
<trkpt lat="31.7221200" lon="35.1113050">
<ele>741.839661</ele>
<time>2025-10-14T17:51:06.373Z</time>
</trkpt>
<trkpt lat="31.7219920" lon="35.1112890">
<ele>742.091064</ele>
<time>2025-10-14T17:51:09.925Z</time>
</trkpt>
<trkpt lat="31.7218250" lon="35.1113330">
<ele>742.425354</ele>
<time>2025-10-14T17:51:15.088Z</time>
</trkpt>
<trkpt lat="31.7217700" lon="35.1113610">
<ele>742.542419</ele>
<time>2025-10-14T17:51:17.095Z</time>
</trkpt>
<trkpt lat="31.7215930" lon="35.1113260">
<ele>742.893005</ele>
<time>2025-10-14T17:51:24.032Z</time>
</trkpt>
<trkpt lat="31.7213130" lon="35.1114690">
<ele>743.489258</ele>
<time>2025-10-14T17:51:38.608Z</time>
</trkpt>
<trkpt lat="31.7210970" lon="35.1114830">
<ele>743.911865</ele>
<time>2025-10-14T17:51:50.719Z</time>
</trkpt>
<trkpt lat="31.7208110" lon="35.1116320">
<ele>744.522888</ele>
<time>2025-10-14T17:52:10.086Z</time>
</trkpt>
<trkpt lat="31.7206820" lon="35.1118190">
<ele>744.958130</ele>
<time>2025-10-14T17:52:23.421Z</time>
</trkpt>
<trkpt lat="31.7206420" lon="35.1118230">
<ele>745.116699</ele>
<time>2025-10-14T17:52:26.007Z</time>
</trkpt>
<trkpt lat="31.7206160" lon="35.1117750">
<ele>745.307983</ele>
<time>2025-10-14T17:52:29.260Z</time>
</trkpt>
<trkpt lat="31.7206680" lon="35.1117370">
<ele>745.549805</ele>
<time>2025-10-14T17:52:33.183Z</time>
</trkpt>
<trkpt lat="31.7206740" lon="35.1116930">
<ele>745.699524</ele>
<time>2025-10-14T17:52:35.617Z</time>
</trkpt>
<trkpt lat="31.7206340" lon="35.1116810">
<ele>745.862671</ele>
<time>2025-10-14T17:52:38.200Z</time>
</trkpt>
<trkpt lat="31.7204750" lon="35.1118350">
<ele>746.676453</ele>
<time>2025-10-14T17:52:50.506Z</time>
</trkpt>
<trkpt lat="31.7204750" lon="35.1118030">
<ele>746.783936</ele>
<time>2025-10-14T17:52:52.091Z</time>
</trkpt>
<trkpt lat="31.7205740" lon="35.1116480">
<ele>747.435303</ele>
<time>2025-10-14T17:53:01.170Z</time>
</trkpt>
<trkpt lat="31.7205480" lon="35.1116250">
<ele>747.563843</ele>
<time>2025-10-14T17:53:02.908Z</time>
</trkpt>
<trkpt lat="31.7205090" lon="35.1116320">
<ele>747.719666</ele>
<time>2025-10-14T17:53:05.029Z</time>
</trkpt>
<trkpt lat="31.7204340" lon="35.1117140">
<ele>748.124207</ele>
<time>2025-10-14T17:53:10.291Z</time>
</trkpt>
<trkpt lat="31.7204020" lon="35.1117490">
<ele>748.296936</ele>
<time>2025-10-14T17:53:12.516Z</time>
</trkpt>
<trkpt lat="31.7201270" lon="35.1123000">
<ele>750.443542</ele>
<time>2025-10-14T17:53:37.784Z</time>
</trkpt>
<trkpt lat="31.7200260" lon="35.1124310">
<ele>751.037598</ele>
<time>2025-10-14T17:53:44.442Z</time>
</trkpt>
<trkpt lat="31.7199940" lon="35.1124350">
<ele>751.164795</ele>
<time>2025-10-14T17:53:45.860Z</time>
</trkpt>
<trkpt lat="31.7199980" lon="35.1123930">
<ele>751.306763</ele>
<time>2025-10-14T17:53:47.462Z</time>
</trkpt>
<trkpt lat="31.7201670" lon="35.1121780">
<ele>752.137512</ele>
<time>2025-10-14T17:53:58.244Z</time>
</trkpt>
<trkpt lat="31.7201650" lon="35.1121200">
<ele>752.232117</ele>
<time>2025-10-14T17:54:00.449Z</time>
</trkpt>
<trkpt lat="31.7201450" lon="35.1121080">
<ele>752.275146</ele>
<time>2025-10-14T17:54:01.480Z</time>
</trkpt>
<trkpt lat="31.7199430" lon="35.1122300">
<ele>752.710144</ele>
<time>2025-10-14T17:54:11.328Z</time>
</trkpt>
<trkpt lat="31.7200760" lon="35.1118030">
<ele>753.450989</ele>
<time>2025-10-14T17:54:28.765Z</time>
</trkpt>
<trkpt lat="31.7200900" lon="35.1116970">
<ele>753.625793</ele>
<time>2025-10-14T17:54:32.667Z</time>
</trkpt>
<trkpt lat="31.7200760" lon="35.1116650">
<ele>753.684448</ele>
<time>2025-10-14T17:54:34.076Z</time>
</trkpt>
<trkpt lat="31.7200320" lon="35.1117050">
<ele>753.791016</ele>
<time>2025-10-14T17:54:36.642Z</time>
</trkpt>
<trkpt lat="31.7199390" lon="35.1119020">
<ele>754.158081</ele>
<time>2025-10-14T17:54:45.020Z</time>
</trkpt>
<trkpt lat="31.7199190" lon="35.1119470">
<ele>754.240845</ele>
<time>2025-10-14T17:54:46.847Z</time>
</trkpt>
<trkpt lat="31.7198950" lon="35.1118880">
<ele>754.347351</ele>
<time>2025-10-14T17:54:49.391Z</time>
</trkpt>
<trkpt lat="31.7198820" lon="35.1119400">
<ele>754.435669</ele>
<time>2025-10-14T17:54:51.210Z</time>
</trkpt>
<trkpt lat="31.7198360" lon="35.1119800">
<ele>754.545288</ele>
<time>2025-10-14T17:54:53.586Z</time>
</trkpt>
<trkpt lat="31.7195850" lon="35.1120520">
<ele>755.040100</ele>
<time>2025-10-14T17:55:03.914Z</time>
</trkpt>
<trkpt lat="31.7194330" lon="35.1120450">
<ele>755.331543</ele>
<time>2025-10-14T17:55:09.370Z</time>
</trkpt>
<trkpt lat="31.7193100" lon="35.1120830">
<ele>755.386658</ele>
<time>2025-10-14T17:55:13.630Z</time>
</trkpt>
<trkpt lat="31.7192660" lon="35.1121450">
<ele>755.336365</ele>
<time>2025-10-14T17:55:15.768Z</time>
</trkpt>
<trkpt lat="31.7192070" lon="35.1123310">
<ele>755.212646</ele>
<time>2025-10-14T17:55:20.983Z</time>
</trkpt>
<trkpt lat="31.7190630" lon="35.1126180">
<ele>755.004944</ele>
<time>2025-10-14T17:55:29.485Z</time>
</trkpt>
<trkpt lat="31.7190190" lon="35.1128430">
<ele>754.861084</ele>
<time>2025-10-14T17:55:35.251Z</time>
</trkpt>
<trkpt lat="31.7190380" lon="35.1129050">
<ele>754.820007</ele>
<time>2025-10-14T17:55:36.847Z</time>
</trkpt>
<trkpt lat="31.7190800" lon="35.1129140">
<ele>754.788757</ele>
<time>2025-10-14T17:55:38.080Z</time>
</trkpt>
<trkpt lat="31.7191640" lon="35.1128800">
<ele>754.723633</ele>
<time>2025-10-14T17:55:40.588Z</time>
</trkpt>
<trkpt lat="31.7191980" lon="35.1128950">
<ele>754.697021</ele>
<time>2025-10-14T17:55:41.633Z</time>
</trkpt>
<trkpt lat="31.7192470" lon="35.1130030">
<ele>754.620728</ele>
<time>2025-10-14T17:55:44.586Z</time>
</trkpt>
<trkpt lat="31.7192580" lon="35.1133700">
<ele>754.391846</ele>
<time>2025-10-14T17:55:53.407Z</time>
</trkpt>
<trkpt lat="31.7191320" lon="35.1136660">
<ele>754.185547</ele>
<time>2025-10-14T17:56:01.365Z</time>
</trkpt>
<trkpt lat="31.7191010" lon="35.1140570">
<ele>754.210938</ele>
<time>2025-10-14T17:56:10.925Z</time>
</trkpt>
<trkpt lat="31.7189750" lon="35.1142170">
<ele>754.278809</ele>
<time>2025-10-14T17:56:16.469Z</time>
</trkpt>
<trkpt lat="31.7189720" lon="35.1144730">
<ele>754.358521</ele>
<time>2025-10-14T17:56:23.328Z</time>
</trkpt>
<trkpt lat="31.7190060" lon="35.1146580">
<ele>754.417419</ele>
<time>2025-10-14T17:56:28.775Z</time>
</trkpt>
<trkpt lat="31.7189700" lon="35.1148150">
<ele>754.468018</ele>
<time>2025-10-14T17:56:33.688Z</time>
</trkpt>
<trkpt lat="31.7189600" lon="35.1150010">
<ele>754.526062</ele>
<time>2025-10-14T17:56:39.519Z</time>
</trkpt>
<trkpt lat="31.7189430" lon="35.1153050">
<ele>754.620850</ele>
<time>2025-10-14T17:56:49.411Z</time>
</trkpt>
<trkpt lat="31.7188480" lon="35.1155980">
<ele>754.718506</ele>
<time>2025-10-14T17:56:59.978Z</time>
</trkpt>
<trkpt lat="31.7187730" lon="35.1159360">
<ele>754.854004</ele>
<time>2025-10-14T17:57:11.622Z</time>
</trkpt>
<trkpt lat="31.7186550" lon="35.1161680">
<ele>754.984985</ele>
<time>2025-10-14T17:57:20.419Z</time>
</trkpt>
<trkpt lat="31.7186390" lon="35.1162910">
<ele>755.045288</ele>
<time>2025-10-14T17:57:24.454Z</time>
</trkpt>
<trkpt lat="31.7186810" lon="35.1164050">
<ele>755.105469</ele>
<time>2025-10-14T17:57:28.476Z</time>
</trkpt>
<trkpt lat="31.7187440" lon="35.1167710">
<ele>755.286438</ele>
<time>2025-10-14T17:57:40.292Z</time>
</trkpt>
<trkpt lat="31.7188080" lon="35.1168200">
<ele>755.329956</ele>
<time>2025-10-14T17:57:42.985Z</time>
</trkpt>
<trkpt lat="31.7189330" lon="35.1169170">
<ele>755.415222</ele>
<time>2025-10-14T17:57:48.190Z</time>
</trkpt>
<trkpt lat="31.7191500" lon="35.1170580">
<ele>755.556580</ele>
<time>2025-10-14T17:57:56.389Z</time>
</trkpt>
<trkpt lat="31.7196590" lon="35.1171780">
<ele>755.817993</ele>
<time>2025-10-14T17:58:12.235Z</time>
</trkpt>
<trkpt lat="31.7198270" lon="35.1171720">
<ele>755.845886</ele>
<time>2025-10-14T17:58:17.179Z</time>
</trkpt>
<trkpt lat="31.7199110" lon="35.1172240">
<ele>755.861633</ele>
<time>2025-10-14T17:58:19.965Z</time>
</trkpt>
<trkpt lat="31.7203800" lon="35.1172700">
<ele>755.939819</ele>
<time>2025-10-14T17:58:34.030Z</time>
</trkpt>
<trkpt lat="31.7207120" lon="35.1172270">
<ele>755.995300</ele>
<time>2025-10-14T17:58:44.563Z</time>
</trkpt>
<trkpt lat="31.7209820" lon="35.1173910">
<ele>756.045776</ele>
<time>2025-10-14T17:58:54.930Z</time>
</trkpt>
<trkpt lat="31.7211290" lon="35.1174090">
<ele>756.070313</ele>
<time>2025-10-14T17:59:00.297Z</time>
</trkpt>
<trkpt lat="31.7212500" lon="35.1175080">
<ele>756.094788</ele>
<time>2025-10-14T17:59:05.852Z</time>
</trkpt>
<trkpt lat="31.7213520" lon="35.1176590">
<ele>756.387390</ele>
<time>2025-10-14T17:59:12.307Z</time>
</trkpt>
<trkpt lat="31.7214960" lon="35.1183130">
<ele>757.784119</ele>
<time>2025-10-14T17:59:37.060Z</time>
</trkpt>
<trkpt lat="31.7214770" lon="35.1185410">
<ele>758.257690</ele>
<time>2025-10-14T17:59:46.184Z</time>
</trkpt>
<trkpt lat="31.7215320" lon="35.1187240">
<ele>758.659058</ele>
<time>2025-10-14T17:59:54.156Z</time>
</trkpt>
<trkpt lat="31.7215000" lon="35.1188170">
<ele>758.866394</ele>
<time>2025-10-14T17:59:58.406Z</time>
</trkpt>
<trkpt lat="31.7215000" lon="35.1189540">
<ele>759.149658</ele>
<time>2025-10-14T18:00:04.208Z</time>
</trkpt>
<trkpt lat="31.7214430" lon="35.1192470">
<ele>759.771057</ele>
<time>2025-10-14T18:00:16.987Z</time>
</trkpt>
<trkpt lat="31.7212670" lon="35.1197350">
<ele>760.387878</ele>
<time>2025-10-14T18:00:37.190Z</time>
</trkpt>
<trkpt lat="31.7212670" lon="35.1198610">
<ele>760.330566</ele>
<time>2025-10-14T18:00:41.489Z</time>
</trkpt>
<trkpt lat="31.7211350" lon="35.1201180">
<ele>760.194031</ele>
<time>2025-10-14T18:00:50.959Z</time>
</trkpt>
<trkpt lat="31.7210280" lon="35.1202690">
<ele>760.104675</ele>
<time>2025-10-14T18:00:56.598Z</time>
</trkpt>
<trkpt lat="31.7210470" lon="35.1203140">
<ele>760.081848</ele>
<time>2025-10-14T18:00:57.974Z</time>
</trkpt>
<trkpt lat="31.7211400" lon="35.1204590">
<ele>759.999207</ele>
<time>2025-10-14T18:01:02.754Z</time>
</trkpt>
<trkpt lat="31.7212540" lon="35.1205770">
<ele>759.918030</ele>
<time>2025-10-14T18:01:07.285Z</time>
</trkpt>
<trkpt lat="31.7213020" lon="35.1206950">
<ele>759.858521</ele>
<time>2025-10-14T18:01:10.503Z</time>
</trkpt>
<trkpt lat="31.7213560" lon="35.1207590">
<ele>759.817505</ele>
<time>2025-10-14T18:01:12.682Z</time>
</trkpt>
<trkpt lat="31.7214430" lon="35.1207540">
<ele>759.770996</ele>
<time>2025-10-14T18:01:15.107Z</time>
</trkpt>
<trkpt lat="31.7214550" lon="35.1207080">
<ele>759.749023</ele>
<time>2025-10-14T18:01:16.212Z</time>
</trkpt>
<trkpt lat="31.7213860" lon="35.1204540">
<ele>759.627808</ele>
<time>2025-10-14T18:01:22.304Z</time>
</trkpt>
<trkpt lat="31.7214230" lon="35.1203540">
<ele>759.578186</ele>
<time>2025-10-14T18:01:24.698Z</time>
</trkpt>
<trkpt lat="31.7214890" lon="35.1203110">
<ele>759.537842</ele>
<time>2025-10-14T18:01:26.640Z</time>
</trkpt>
<trkpt lat="31.7215780" lon="35.1203380">
<ele>759.305481</ele>
<time>2025-10-14T18:01:28.949Z</time>
</trkpt>
<trkpt lat="31.7217630" lon="35.1206490">
<ele>757.807495</ele>
<time>2025-10-14T18:01:36.985Z</time>
</trkpt>
<trkpt lat="31.7218860" lon="35.1207540">
<ele>757.102112</ele>
<time>2025-10-14T18:01:40.745Z</time>
</trkpt>
<trkpt lat="31.7220770" lon="35.1208450">
<ele>756.145874</ele>
<time>2025-10-14T18:01:45.834Z</time>
</trkpt>
<trkpt lat="31.7221070" lon="35.1208130">
<ele>755.957886</ele>
<time>2025-10-14T18:01:46.826Z</time>
</trkpt>
<trkpt lat="31.7220930" lon="35.1207430">
<ele>755.674072</ele>
<time>2025-10-14T18:01:48.315Z</time>
</trkpt>
<trkpt lat="31.7219470" lon="35.1205770">
<ele>754.731628</ele>
<time>2025-10-14T18:01:53.259Z</time>
</trkpt>
<trkpt lat="31.7218900" lon="35.1204380">
<ele>754.122498</ele>
<time>2025-10-14T18:01:56.433Z</time>
</trkpt>
<trkpt lat="31.7219110" lon="35.1204110">
<ele>753.978088</ele>
<time>2025-10-14T18:01:57.170Z</time>
</trkpt>
<trkpt lat="31.7220590" lon="35.1205150">
<ele>753.177979</ele>
<time>2025-10-14T18:02:01.300Z</time>
</trkpt>
<trkpt lat="31.7225430" lon="35.1205210">
<ele>750.944519</ele>
<time>2025-10-14T18:02:12.676Z</time>
</trkpt>
<trkpt lat="31.7226000" lon="35.1205560">
<ele>750.662048</ele>
<time>2025-10-14T18:02:14.186Z</time>
</trkpt>
<trkpt lat="31.7227690" lon="35.1205560">
<ele>749.919800</ele>
<time>2025-10-14T18:02:18.151Z</time>
</trkpt>
<trkpt lat="31.7229050" lon="35.1205160">
<ele>749.304016</ele>
<time>2025-10-14T18:02:21.436Z</time>
</trkpt>
<trkpt lat="31.7230380" lon="35.1204780">
<ele>748.702820</ele>
<time>2025-10-14T18:02:24.631Z</time>
</trkpt>
<trkpt lat="31.7232320" lon="35.1202980">
<ele>747.617249</ele>
<time>2025-10-14T18:02:30.517Z</time>
</trkpt>
<trkpt lat="31.7233870" lon="35.1202130">
<ele>746.866028</ele>
<time>2025-10-14T18:02:34.700Z</time>
</trkpt>
<trkpt lat="31.7237820" lon="35.1201400">
<ele>745.109741</ele>
<time>2025-10-14T18:02:45.022Z</time>
</trkpt>
<trkpt lat="31.7238090" lon="35.1200810">
<ele>744.859436</ele>
<time>2025-10-14T18:02:46.520Z</time>
</trkpt>
<trkpt lat="31.7238090" lon="35.1200270">
<ele>744.657654</ele>
<time>2025-10-14T18:02:47.723Z</time>
</trkpt>
<trkpt lat="31.7237860" lon="35.1199950">
<ele>744.501160</ele>
<time>2025-10-14T18:02:48.650Z</time>
</trkpt>
<trkpt lat="31.7237430" lon="35.1199360">
<ele>744.210876</ele>
<time>2025-10-14T18:02:50.374Z</time>
</trkpt>
<trkpt lat="31.7236860" lon="35.1199090">
<ele>743.940979</ele>
<time>2025-10-14T18:02:51.973Z</time>
</trkpt>
<trkpt lat="31.7235040" lon="35.1199530">
<ele>743.152344</ele>
<time>2025-10-14T18:02:56.769Z</time>
</trkpt>
<trkpt lat="31.7231930" lon="35.1200270">
<ele>742.029785</ele>
<time>2025-10-14T18:03:04.979Z</time>
</trkpt>
<trkpt lat="31.7230180" lon="35.1201050">
<ele>741.367737</ele>
<time>2025-10-14T18:03:09.776Z</time>
</trkpt>
<trkpt lat="31.7229490" lon="35.1200810">
<ele>741.113220</ele>
<time>2025-10-14T18:03:11.606Z</time>
</trkpt>
<trkpt lat="31.7229850" lon="35.1200690">
<ele>740.980835</ele>
<time>2025-10-14T18:03:12.559Z</time>
</trkpt>
<trkpt lat="31.7231110" lon="35.1200110">
<ele>740.502136</ele>
<time>2025-10-14T18:03:15.960Z</time>
</trkpt>
<trkpt lat="31.7232390" lon="35.1197990">
<ele>739.719849</ele>
<time>2025-10-14T18:03:21.535Z</time>
</trkpt>
<trkpt lat="31.7233730" lon="35.1196380">
<ele>739.042053</ele>
<time>2025-10-14T18:03:26.336Z</time>
</trkpt>
<trkpt lat="31.7239030" lon="35.1193400">
<ele>736.963745</ele>
<time>2025-10-14T18:03:40.876Z</time>
</trkpt>
<trkpt lat="31.7239250" lon="35.1192680">
<ele>736.866333</ele>
<time>2025-10-14T18:03:42.510Z</time>
</trkpt>
<trkpt lat="31.7237910" lon="35.1192120">
<ele>736.756897</ele>
<time>2025-10-14T18:03:46.095Z</time>
</trkpt>
<trkpt lat="31.7237250" lon="35.1191850">
<ele>736.703064</ele>
<time>2025-10-14T18:03:47.892Z</time>
</trkpt>
<trkpt lat="31.7237680" lon="35.1191470">
<ele>736.661621</ele>
<time>2025-10-14T18:03:49.286Z</time>
</trkpt>
<trkpt lat="31.7239690" lon="35.1191550">
<ele>736.506775</ele>
<time>2025-10-14T18:03:54.848Z</time>
</trkpt>
<trkpt lat="31.7240600" lon="35.1191980">
<ele>736.431274</ele>
<time>2025-10-14T18:03:57.699Z</time>
</trkpt>
<trkpt lat="31.7241760" lon="35.1192010">
<ele>736.341980</ele>
<time>2025-10-14T18:04:01.211Z</time>
</trkpt>
<trkpt lat="31.7244110" lon="35.1192840">
<ele>736.153015</ele>
<time>2025-10-14T18:04:09.213Z</time>
</trkpt>
<trkpt lat="31.7245530" lon="35.1192520">
<ele>736.041687</ele>
<time>2025-10-14T18:04:14.292Z</time>
</trkpt>
<trkpt lat="31.7246330" lon="35.1192790">
<ele>735.977600</ele>
<time>2025-10-14T18:04:17.363Z</time>
</trkpt>
<trkpt lat="31.7248200" lon="35.1192840">
<ele>735.833618</ele>
<time>2025-10-14T18:04:24.357Z</time>
</trkpt>
<trkpt lat="31.7249180" lon="35.1194160">
<ele>735.718872</ele>
<time>2025-10-14T18:04:30.098Z</time>
</trkpt>
<trkpt lat="31.7252600" lon="35.1197240">
<ele>735.175171</ele>
<time>2025-10-14T18:04:45.925Z</time>
</trkpt>
<trkpt lat="31.7257430" lon="35.1198360">
<ele>734.183960</ele>
<time>2025-10-14T18:05:00.943Z</time>
</trkpt>
<trkpt lat="31.7261020" lon="35.1199250">
<ele>733.445251</ele>
<time>2025-10-14T18:05:10.928Z</time>
</trkpt>
<trkpt lat="31.7262550" lon="35.1199630">
<ele>733.130371</ele>
<time>2025-10-14T18:05:14.997Z</time>
</trkpt>
<trkpt lat="31.7262390" lon="35.1198900">
<ele>733.001282</ele>
<time>2025-10-14T18:05:16.596Z</time>
</trkpt>
<trkpt lat="31.7261320" lon="35.1198390">
<ele>732.768799</ele>
<time>2025-10-14T18:05:19.560Z</time>
</trkpt>
<trkpt lat="31.7258760" lon="35.1196330">
<ele>732.144287</ele>
<time>2025-10-14T18:05:27.306Z</time>
</trkpt>
<trkpt lat="31.7256900" lon="35.1193680">
<ele>731.021667</ele>
<time>2025-10-14T18:05:34.522Z</time>
</trkpt>
<trkpt lat="31.7257000" lon="35.1193120">
<ele>730.770203</ele>
<time>2025-10-14T18:05:37.374Z</time>
</trkpt>
<trkpt lat="31.7259310" lon="35.1194450">
<ele>729.441589</ele>
<time>2025-10-14T18:05:43.664Z</time>
</trkpt>
<trkpt lat="31.7261910" lon="35.1195280">
<ele>728.049988</ele>
<time>2025-10-14T18:05:50.111Z</time>
</trkpt>
<trkpt lat="31.7262980" lon="35.1195280">
<ele>727.497314</ele>
<time>2025-10-14T18:05:52.642Z</time>
</trkpt>
<trkpt lat="31.7264420" lon="35.1194750">
<ele>726.717896</ele>
<time>2025-10-14T18:05:56.203Z</time>
</trkpt>
<trkpt lat="31.7264880" lon="35.1193890">
<ele>726.271606</ele>
<time>2025-10-14T18:05:58.245Z</time>
</trkpt>
<trkpt lat="31.7264580" lon="35.1193400">
<ele>726.006287</ele>
<time>2025-10-14T18:05:59.409Z</time>
</trkpt>
<trkpt lat="31.7260650" lon="35.1192630">
<ele>723.948303</ele>
<time>2025-10-14T18:06:08.758Z</time>
</trkpt>
<trkpt lat="31.7259990" lon="35.1192220">
<ele>723.562744</ele>
<time>2025-10-14T18:06:10.490Z</time>
</trkpt>
<trkpt lat="31.7261410" lon="35.1192220">
<ele>722.829285</ele>
<time>2025-10-14T18:06:13.782Z</time>
</trkpt>
<trkpt lat="31.7262820" lon="35.1191340">
<ele>722.090576</ele>
<time>2025-10-14T18:06:17.555Z</time>
</trkpt>
<trkpt lat="31.7263930" lon="35.1191190">
<ele>721.595764</ele>
<time>2025-10-14T18:06:20.218Z</time>
</trkpt>
<trkpt lat="31.7264780" lon="35.1191070">
<ele>721.216675</ele>
<time>2025-10-14T18:06:22.292Z</time>
</trkpt>
<trkpt lat="31.7266470" lon="35.1190370">
<ele>720.423218</ele>
<time>2025-10-14T18:06:26.646Z</time>
</trkpt>
<trkpt lat="31.7266720" lon="35.1189520">
<ele>720.084473</ele>
<time>2025-10-14T18:06:28.544Z</time>
</trkpt>
<trkpt lat="31.7266200" lon="35.1188390">
<ele>719.600586</ele>
<time>2025-10-14T18:06:31.243Z</time>
</trkpt>
<trkpt lat="31.7262110" lon="35.1187910">
<ele>717.780457</ele>
<time>2025-10-14T18:06:41.574Z</time>
</trkpt>
<trkpt lat="31.7259700" lon="35.1187370">
<ele>716.694092</ele>
<time>2025-10-14T18:06:47.857Z</time>
</trkpt>
<trkpt lat="31.7257690" lon="35.1187370">
<ele>715.804077</ele>
<time>2025-10-14T18:06:53.021Z</time>
</trkpt>
<trkpt lat="31.7254200" lon="35.1185270">
<ele>713.734192</ele>
<time>2025-10-14T18:07:03.030Z</time>
</trkpt>
<trkpt lat="31.7251250" lon="35.1183340">
<ele>711.369934</ele>
<time>2025-10-14T18:07:10.961Z</time>
</trkpt>
<trkpt lat="31.7251050" lon="35.1183210">
<ele>711.209900</ele>
<time>2025-10-14T18:07:11.479Z</time>
</trkpt>
<trkpt lat="31.7250000" lon="35.1182170">
<ele>710.248352</ele>
<time>2025-10-14T18:07:14.607Z</time>
</trkpt>
<trkpt lat="31.7253540" lon="35.1182810">
<ele>707.740112</ele>
<time>2025-10-14T18:07:22.584Z</time>
</trkpt>
<trkpt lat="31.7254070" lon="35.1182280">
<ele>707.252808</ele>
<time>2025-10-14T18:07:24.116Z</time>
</trkpt>
<trkpt lat="31.7254190" lon="35.1180420">
<ele>706.141663</ele>
<time>2025-10-14T18:07:32.755Z</time>
</trkpt>
<trkpt lat="31.7252650" lon="35.1178840">
<ele>704.710266</ele>
<time>2025-10-14T18:07:37.239Z</time>
</trkpt>
<trkpt lat="31.7251370" lon="35.1178170">
<ele>703.728943</ele>
<time>2025-10-14T18:07:40.355Z</time>
</trkpt>
<trkpt lat="31.7250260" lon="35.1176810">
<ele>702.606201</ele>
<time>2025-10-14T18:07:43.929Z</time>
</trkpt>
<trkpt lat="31.7249750" lon="35.1175610">
<ele>701.939941</ele>
<time>2025-10-14T18:07:46.484Z</time>
</trkpt>
<trkpt lat="31.7249720" lon="35.1173840">
<ele>701.473267</ele>
<time>2025-10-14T18:07:49.840Z</time>
</trkpt>
<trkpt lat="31.7250290" lon="35.1172120">
<ele>700.986511</ele>
<time>2025-10-14T18:07:53.330Z</time>
</trkpt>
<trkpt lat="31.7251050" lon="35.1171450">
<ele>700.692139</ele>
<time>2025-10-14T18:07:55.445Z</time>
</trkpt>
<trkpt lat="31.7252660" lon="35.1170740">
<ele>700.159058</ele>
<time>2025-10-14T18:07:59.364Z</time>
</trkpt>
<trkpt lat="31.7252670" lon="35.1170730">
<ele>700.154968</ele>
<time>2025-10-14T18:07:59.394Z</time>
</trkpt>
<trkpt lat="31.7254150" lon="35.1169640">
<ele>699.613708</ele>
<time>2025-10-14T18:08:03.569Z</time>
</trkpt>
<trkpt lat="31.7255740" lon="35.1169170">
<ele>699.105530</ele>
<time>2025-10-14T18:08:07.745Z</time>
</trkpt>
<trkpt lat="31.7257170" lon="35.1169140">
<ele>698.662170</ele>
<time>2025-10-14T18:08:11.673Z</time>
</trkpt>
<trkpt lat="31.7263730" lon="35.1170630">
<ele>696.591248</ele>
<time>2025-10-14T18:08:35.583Z</time>
</trkpt>
<trkpt lat="31.7265680" lon="35.1170050">
<ele>696.987549</ele>
<time>2025-10-14T18:08:44.042Z</time>
</trkpt>
<trkpt lat="31.7271190" lon="35.1167240">
<ele>698.903870</ele>
<time>2025-10-14T18:09:11.839Z</time>
</trkpt>
<trkpt lat="31.7279000" lon="35.1164250">
<ele>701.524597</ele>
<time>2025-10-14T18:09:57.054Z</time>
</trkpt>
<trkpt lat="31.7284290" lon="35.1162230">
<ele>703.158447</ele>
<time>2025-10-14T18:10:21.879Z</time>
</trkpt>
<trkpt lat="31.7301500" lon="35.1157510">
<ele>708.036255</ele>
<time>2025-10-14T18:11:39.948Z</time>
</trkpt>
<trkpt lat="31.7306400" lon="35.1156160">
<ele>709.382019</ele>
<time>2025-10-14T18:12:07.024Z</time>
</trkpt>
<trkpt lat="31.7311450" lon="35.1152380">
<ele>710.982910</ele>
<time>2025-10-14T18:12:35.610Z</time>
</trkpt>
<trkpt lat="31.7313060" lon="35.1149940">
<ele>711.685242</ele>
<time>2025-10-14T18:12:46.596Z</time>
</trkpt>
<trkpt lat="31.7318920" lon="35.1139600">
<ele>712.553772</ele>
<time>2025-10-14T18:13:20.424Z</time>
</trkpt>
<trkpt lat="31.7318930" lon="35.1137330">
<ele>712.664978</ele>
<time>2025-10-14T18:13:26.042Z</time>
</trkpt>
<trkpt lat="31.7317050" lon="35.1134980">
<ele>712.822998</ele>
<time>2025-10-14T18:13:34.496Z</time>
</trkpt>
<trkpt lat="31.7303560" lon="35.1129370">
<ele>713.415833</ele>
<time>2025-10-14T18:14:32.882Z</time>
</trkpt>
<trkpt lat="31.7299180" lon="35.1128420">
<ele>713.572510</ele>
<time>2025-10-14T18:14:47.419Z</time>
</trkpt>
<trkpt lat="31.7298220" lon="35.1126830">
<ele>713.630859</ele>
<time>2025-10-14T18:14:52.202Z</time>
</trkpt>
<trkpt lat="31.7299250" lon="35.1124850">
<ele>713.587463</ele>
<time>2025-10-14T18:14:57.614Z</time>
</trkpt>
<trkpt lat="31.7307160" lon="35.1118550">
<ele>711.396973</ele>
<time>2025-10-14T18:15:21.733Z</time>
</trkpt>
<trkpt lat="31.7309600" lon="35.1115780">
<ele>710.619324</ele>
<time>2025-10-14T18:15:30.246Z</time>
</trkpt>
<trkpt lat="31.7312060" lon="35.1110190">
<ele>709.842712</ele>
<time>2025-10-14T18:15:45.381Z</time>
</trkpt>
<trkpt lat="31.7313500" lon="35.1105250">
<ele>711.533203</ele>
<time>2025-10-14T18:16:03.658Z</time>
</trkpt>
<trkpt lat="31.7313650" lon="35.1103780">
<ele>712.012451</ele>
<time>2025-10-14T18:16:10.010Z</time>
</trkpt>
<trkpt lat="31.7313360" lon="35.1102450">
<ele>712.456909</ele>
<time>2025-10-14T18:16:16.327Z</time>
</trkpt>
<trkpt lat="31.7307970" lon="35.1095290">
<ele>715.552063</ele>
<time>2025-10-14T18:17:06.897Z</time>
</trkpt>
<trkpt lat="31.7304580" lon="35.1093170">
<ele>716.999084</ele>
<time>2025-10-14T18:17:30.732Z</time>
</trkpt>
<trkpt lat="31.7304480" lon="35.1093110">
<ele>717.040833</ele>
<time>2025-10-14T18:17:31.403Z</time>
</trkpt>
<trkpt lat="31.7302710" lon="35.1090130">
<ele>718.189453</ele>
<time>2025-10-14T18:17:48.384Z</time>
</trkpt>
<trkpt lat="31.7303140" lon="35.1086690">
<ele>719.288269</ele>
<time>2025-10-14T18:18:02.585Z</time>
</trkpt>
<trkpt lat="31.7305860" lon="35.1080200">
<ele>721.574768</ele>
<time>2025-10-14T18:18:30.340Z</time>
</trkpt>
<trkpt lat="31.7310640" lon="35.1076460">
<ele>723.350525</ele>
<time>2025-10-14T18:18:56.934Z</time>
</trkpt>
<trkpt lat="31.7306280" lon="35.1073580">
<ele>724.133301</ele>
<time>2025-10-14T18:19:22.910Z</time>
</trkpt>
<trkpt lat="31.7305160" lon="35.1073390">
<ele>724.310486</ele>
<time>2025-10-14T18:19:28.951Z</time>
</trkpt>
<trkpt lat="31.7301690" lon="35.1074210">
<ele>724.864502</ele>
<time>2025-10-14T18:19:46.503Z</time>
</trkpt>
<trkpt lat="31.7300680" lon="35.1074520">
<ele>725.027832</ele>
<time>2025-10-14T18:19:51.097Z</time>
</trkpt>
<trkpt lat="31.7298750" lon="35.1074550">
<ele>725.330017</ele>
<time>2025-10-14T18:19:58.894Z</time>
</trkpt>
<trkpt lat="31.7296880" lon="35.1074900">
<ele>725.626404</ele>
<time>2025-10-14T18:20:04.664Z</time>
</trkpt>
<trkpt lat="31.7296020" lon="35.1074700">
<ele>725.763611</ele>
<time>2025-10-14T18:20:07.077Z</time>
</trkpt>
<trkpt lat="31.7295000" lon="35.1072950">
<ele>725.146729</ele>
<time>2025-10-14T18:20:11.654Z</time>
</trkpt>
<trkpt lat="31.7292430" lon="35.1067900">
<ele>720.915771</ele>
<time>2025-10-14T18:20:23.259Z</time>
</trkpt>
<trkpt lat="31.7293320" lon="35.1065570">
<ele>719.079468</ele>
<time>2025-10-14T18:20:28.007Z</time>
</trkpt>
<trkpt lat="31.7293300" lon="35.1064720">
<ele>718.468079</ele>
<time>2025-10-14T18:20:29.567Z</time>
</trkpt>
<trkpt lat="31.7292750" lon="35.1064020">
<ele>717.782959</ele>
<time>2025-10-14T18:20:31.291Z</time>
</trkpt>
<trkpt lat="31.7291680" lon="35.1063420">
<ele>716.780884</ele>
<time>2025-10-14T18:20:33.793Z</time>
</trkpt>
<trkpt lat="31.7291090" lon="35.1062640">
<ele>716.030396</ele>
<time>2025-10-14T18:20:35.658Z</time>
</trkpt>
<trkpt lat="31.7291060" lon="35.1061870">
<ele>715.476257</ele>
<time>2025-10-14T18:20:37.026Z</time>
</trkpt>
<trkpt lat="31.7291330" lon="35.1061120">
<ele>714.890747</ele>
<time>2025-10-14T18:20:38.472Z</time>
</trkpt>
<trkpt lat="31.7292570" lon="35.1059350">
<ele>713.242126</ele>
<time>2025-10-14T18:20:42.545Z</time>
</trkpt>
<trkpt lat="31.7292830" lon="35.1058510">
<ele>712.599426</ele>
<time>2025-10-14T18:20:44.129Z</time>
</trkpt>
<trkpt lat="31.7292870" lon="35.1056470">
<ele>711.132385</ele>
<time>2025-10-14T18:20:47.759Z</time>
</trkpt>
<trkpt lat="31.7295640" lon="35.1046640">
<ele>703.713379</ele>
<time>2025-10-14T18:21:06.545Z</time>
</trkpt>
<trkpt lat="31.7297530" lon="35.1037810">
<ele>697.191467</ele>
<time>2025-10-14T18:21:23.973Z</time>
</trkpt>
<trkpt lat="31.7298920" lon="35.1033870">
<ele>695.182068</ele>
<time>2025-10-14T18:21:32.592Z</time>
</trkpt>
<trkpt lat="31.7301940" lon="35.1027180">
<ele>693.757263</ele>
<time>2025-10-14T18:21:49.408Z</time>
</trkpt>
<trkpt lat="31.7303050" lon="35.1025510">
<ele>693.358521</ele>
<time>2025-10-14T18:21:54.612Z</time>
</trkpt>
<trkpt lat="31.7304300" lon="35.1024550">
<ele>693.028259</ele>
<time>2025-10-14T18:21:59.067Z</time>
</trkpt>
<trkpt lat="31.7307680" lon="35.1022090">
<ele>692.148987</ele>
<time>2025-10-14T18:22:11.377Z</time>
</trkpt>
<trkpt lat="31.7312150" lon="35.1017690">
<ele>690.393127</ele>
<time>2025-10-14T18:22:30.126Z</time>
</trkpt>
<trkpt lat="31.7316250" lon="35.1014310">
<ele>688.564758</ele>
<time>2025-10-14T18:22:44.370Z</time>
</trkpt>
<trkpt lat="31.7320870" lon="35.1010500">
<ele>686.504272</ele>
<time>2025-10-14T18:22:58.325Z</time>
</trkpt>
<trkpt lat="31.7322740" lon="35.1007230">
<ele>685.280518</ele>
<time>2025-10-14T18:23:05.971Z</time>
</trkpt>
<trkpt lat="31.7322790" lon="35.1005450">
<ele>684.415161</ele>
<time>2025-10-14T18:23:09.341Z</time>
</trkpt>
<trkpt lat="31.7322920" lon="35.1001600">
<ele>681.890747</ele>
<time>2025-10-14T18:23:16.481Z</time>
</trkpt>
<trkpt lat="31.7322460" lon="35.0999830">
<ele>680.678101</ele>
<time>2025-10-14T18:23:19.851Z</time>
</trkpt>
<trkpt lat="31.7318530" lon="35.0996040">
<ele>676.762573</ele>
<time>2025-10-14T18:23:30.605Z</time>
</trkpt>
<trkpt lat="31.7315040" lon="35.0992820">
<ele>673.345093</ele>
<time>2025-10-14T18:23:40.288Z</time>
</trkpt>
<trkpt lat="31.7311920" lon="35.0989360">
<ele>671.669678</ele>
<time>2025-10-14T18:23:50.840Z</time>
</trkpt>
<trkpt lat="31.7308980" lon="35.0986640">
<ele>673.008362</ele>
<time>2025-10-14T18:24:03.409Z</time>
</trkpt>
<trkpt lat="31.7300500" lon="35.0978380">
<ele>676.948975</ele>
<time>2025-10-14T18:25:16.994Z</time>
</trkpt>
<trkpt lat="31.7299000" lon="35.0975040">
<ele>678.128357</ele>
<time>2025-10-14T18:25:38.779Z</time>
</trkpt>
<trkpt lat="31.7299470" lon="35.0973790">
<ele>678.568665</ele>
<time>2025-10-14T18:25:45.397Z</time>
</trkpt>
<trkpt lat="31.7300180" lon="35.0972450">
<ele>679.077332</ele>
<time>2025-10-14T18:25:52.583Z</time>
</trkpt>
<trkpt lat="31.7302270" lon="35.0970870">
<ele>680.018555</ele>
<time>2025-10-14T18:26:04.485Z</time>
</trkpt>
<trkpt lat="31.7310540" lon="35.0967960">
<ele>683.288574</ele>
<time>2025-10-14T18:26:39.223Z</time>
</trkpt>
<trkpt lat="31.7312670" lon="35.0966890">
<ele>684.165955</ele>
<time>2025-10-14T18:26:50.230Z</time>
</trkpt>
<trkpt lat="31.7309620" lon="35.0966400">
<ele>685.908508</ele>
<time>2025-10-14T18:27:07.885Z</time>
</trkpt>
<trkpt lat="31.7303390" lon="35.0965980">
<ele>689.738647</ele>
<time>2025-10-14T18:27:51.638Z</time>
</trkpt>
<trkpt lat="31.7298490" lon="35.0965030">
<ele>692.786804</ele>
<time>2025-10-14T18:28:28.796Z</time>
</trkpt>
<trkpt lat="31.7296350" lon="35.0965350">
<ele>694.110962</ele>
<time>2025-10-14T18:28:42.813Z</time>
</trkpt>
<trkpt lat="31.7295740" lon="35.0965440">
<ele>694.488281</ele>
<time>2025-10-14T18:28:46.517Z</time>
</trkpt>
<trkpt lat="31.7295410" lon="35.0965490">
<ele>694.692505</ele>
<time>2025-10-14T18:28:48.527Z</time>
</trkpt>
<trkpt lat="31.7293520" lon="35.0965550">
<ele>695.453308</ele>
<time>2025-10-14T18:28:58.901Z</time>
</trkpt>
<trkpt lat="31.7290520" lon="35.0965120">
<ele>695.501831</ele>
<time>2025-10-14T18:29:12.943Z</time>
</trkpt>
<trkpt lat="31.7286440" lon="35.0963190">
<ele>695.572510</ele>
<time>2025-10-14T18:29:27.290Z</time>
</trkpt>
<trkpt lat="31.7281720" lon="35.0959110">
<ele>695.666626</ele>
<time>2025-10-14T18:29:43.400Z</time>
</trkpt>
<trkpt lat="31.7278080" lon="35.0957390">
<ele>695.729675</ele>
<time>2025-10-14T18:29:53.898Z</time>
</trkpt>
<trkpt lat="31.7270560" lon="35.0958680">
<ele>695.148499</ele>
<time>2025-10-14T18:30:15.382Z</time>
</trkpt>
<trkpt lat="31.7263930" lon="35.0960490">
<ele>694.618286</ele>
<time>2025-10-14T18:30:36.820Z</time>
</trkpt>
<trkpt lat="31.7260620" lon="35.0960250">
<ele>694.359924</ele>
<time>2025-10-14T18:30:47.426Z</time>
</trkpt>
<trkpt lat="31.7258290" lon="35.0959640">
<ele>694.245728</ele>
<time>2025-10-14T18:30:54.919Z</time>
</trkpt>
<trkpt lat="31.7254220" lon="35.0960750">
<ele>694.069641</ele>
<time>2025-10-14T18:31:07.724Z</time>
</trkpt>
<trkpt lat="31.7254220" lon="35.0960120">
<ele>694.046997</ele>
<time>2025-10-14T18:31:09.331Z</time>
</trkpt>
<trkpt lat="31.7253380" lon="35.0958250">
<ele>693.971252</ele>
<time>2025-10-14T18:31:14.721Z</time>
</trkpt>
<trkpt lat="31.7253270" lon="35.0957410">
<ele>693.940735</ele>
<time>2025-10-14T18:31:16.901Z</time>
</trkpt>
<trkpt lat="31.7253520" lon="35.0955110">
<ele>693.857605</ele>
<time>2025-10-14T18:31:22.853Z</time>
</trkpt>
<trkpt lat="31.7253900" lon="35.0953810">
<ele>693.808350</ele>
<time>2025-10-14T18:31:26.404Z</time>
</trkpt>
<trkpt lat="31.7259790" lon="35.0950210">
<ele>693.788513</ele>
<time>2025-10-14T18:31:46.409Z</time>
</trkpt>
<trkpt lat="31.7266530" lon="35.0946630">
<ele>695.332520</ele>
<time>2025-10-14T18:32:09.799Z</time>
</trkpt>
<trkpt lat="31.7267710" lon="35.0945660">
<ele>695.633057</ele>
<time>2025-10-14T18:32:15.050Z</time>
</trkpt>
<trkpt lat="31.7268670" lon="35.0944410">
<ele>695.932129</ele>
<time>2025-10-14T18:32:20.642Z</time>
</trkpt>
<trkpt lat="31.7270940" lon="35.0937720">
<ele>697.211121</ele>
<time>2025-10-14T18:32:51.851Z</time>
</trkpt>
<trkpt lat="31.7271500" lon="35.0935050">
<ele>698.897644</ele>
<time>2025-10-14T18:33:07.079Z</time>
</trkpt>
<trkpt lat="31.7271720" lon="35.0932740">
<ele>700.639038</ele>
<time>2025-10-14T18:33:21.161Z</time>
</trkpt>
<trkpt lat="31.7270950" lon="35.0928860">
<ele>703.624023</ele>
<time>2025-10-14T18:33:47.861Z</time>
</trkpt>
<trkpt lat="31.7270240" lon="35.0926130">
<ele>705.762817</ele>
<time>2025-10-14T18:34:08.423Z</time>
</trkpt>
<trkpt lat="31.7269910" lon="35.0920750">
<ele>709.804016</ele>
<time>2025-10-14T18:34:48.608Z</time>
</trkpt>
<trkpt lat="31.7268740" lon="35.0915240">
<ele>713.515991</ele>
<time>2025-10-14T18:35:29.440Z</time>
</trkpt>
<trkpt lat="31.7267930" lon="35.0909110">
<ele>715.324402</ele>
<time>2025-10-14T18:36:03.790Z</time>
</trkpt>
<trkpt lat="31.7266960" lon="35.0904080">
<ele>716.827820</ele>
<time>2025-10-14T18:36:24.483Z</time>
</trkpt>
<trkpt lat="31.7268370" lon="35.0901290">
<ele>717.773926</ele>
<time>2025-10-14T18:36:34.265Z</time>
</trkpt>
<trkpt lat="31.7269910" lon="35.0899690">
<ele>718.478271</ele>
<time>2025-10-14T18:36:40.645Z</time>
</trkpt>
<trkpt lat="31.7272190" lon="35.0897930">
<ele>719.305176</ele>
<time>2025-10-14T18:36:48.559Z</time>
</trkpt>
<trkpt lat="31.7273430" lon="35.0895760">
<ele>719.019348</ele>
<time>2025-10-14T18:36:54.654Z</time>
</trkpt>
<trkpt lat="31.7275140" lon="35.0893600">
<ele>718.696716</ele>
<time>2025-10-14T18:37:01.303Z</time>
</trkpt>
<trkpt lat="31.7279440" lon="35.0889750">
<ele>718.001953</ele>
<time>2025-10-14T18:37:15.992Z</time>
</trkpt>
<trkpt lat="31.7282050" lon="35.0886470">
<ele>717.510864</ele>
<time>2025-10-14T18:37:26.737Z</time>
</trkpt>
<trkpt lat="31.7291460" lon="35.0877610">
<ele>717.992065</ele>
<time>2025-10-14T18:38:05.176Z</time>
</trkpt>
<trkpt lat="31.7292180" lon="35.0876340">
<ele>718.144470</ele>
<time>2025-10-14T18:38:10.606Z</time>
</trkpt>
<trkpt lat="31.7292970" lon="35.0873570">
<ele>718.436218</ele>
<time>2025-10-14T18:38:21.249Z</time>
</trkpt>
<trkpt lat="31.7293100" lon="35.0871210">
<ele>718.672424</ele>
<time>2025-10-14T18:38:30.084Z</time>
</trkpt>
<trkpt lat="31.7292750" lon="35.0865080">
<ele>719.278015</ele>
<time>2025-10-14T18:38:53.210Z</time>
</trkpt>
<trkpt lat="31.7295000" lon="35.0861050">
<ele>719.734314</ele>
<time>2025-10-14T18:39:11.359Z</time>
</trkpt>
<trkpt lat="31.7296280" lon="35.0856970">
<ele>720.145935</ele>
<time>2025-10-14T18:39:25.413Z</time>
</trkpt>
<trkpt lat="31.7301570" lon="35.0848600">
<ele>721.132996</ele>
<time>2025-10-14T18:39:53.357Z</time>
</trkpt>
<trkpt lat="31.7305400" lon="35.0844520">
<ele>721.787659</ele>
<time>2025-10-14T18:40:11.610Z</time>
</trkpt>
<trkpt lat="31.7308690" lon="35.0837660">
<ele>722.636841</ele>
<time>2025-10-14T18:40:38.570Z</time>
</trkpt>
<trkpt lat="31.7308320" lon="35.0832290">
<ele>723.217712</ele>
<time>2025-10-14T18:40:57.698Z</time>
</trkpt>
<trkpt lat="31.7309420" lon="35.0829720">
<ele>723.321289</ele>
<time>2025-10-14T18:41:07.856Z</time>
</trkpt>
<trkpt lat="31.7308500" lon="35.0825430">
<ele>722.916626</ele>
<time>2025-10-14T18:41:22.505Z</time>
</trkpt>
<trkpt lat="31.7306130" lon="35.0820710">
<ele>722.415222</ele>
<time>2025-10-14T18:41:36.799Z</time>
</trkpt>
<trkpt lat="31.7302320" lon="35.0816650">
<ele>721.862183</ele>
<time>2025-10-14T18:41:50.702Z</time>
</trkpt>
<trkpt lat="31.7301090" lon="35.0811830">
<ele>721.202026</ele>
<time>2025-10-14T18:42:01.599Z</time>
</trkpt>
<trkpt lat="31.7299420" lon="35.0807480">
<ele>719.673035</ele>
<time>2025-10-14T18:42:11.638Z</time>
</trkpt>
<trkpt lat="31.7299410" lon="35.0806120">
<ele>719.237366</ele>
<time>2025-10-14T18:42:14.473Z</time>
</trkpt>
<trkpt lat="31.7300420" lon="35.0800460">
<ele>717.384583</ele>
<time>2025-10-14T18:42:26.450Z</time>
</trkpt>
<trkpt lat="31.7301680" lon="35.0795840">
<ele>715.830261</ele>
<time>2025-10-14T18:42:36.862Z</time>
</trkpt>
<trkpt lat="31.7303800" lon="35.0790420">
<ele>714.219910</ele>
<time>2025-10-14T18:42:50.033Z</time>
</trkpt>
<trkpt lat="31.7306430" lon="35.0774110">
<ele>710.932983</ele>
<time>2025-10-14T18:43:28.593Z</time>
</trkpt>
<trkpt lat="31.7308950" lon="35.0769560">
<ele>709.299377</ele>
<time>2025-10-14T18:43:41.555Z</time>
</trkpt>
<trkpt lat="31.7309450" lon="35.0768000">
<ele>708.690674</ele>
<time>2025-10-14T18:43:45.318Z</time>
</trkpt>
<trkpt lat="31.7309810" lon="35.0764540">
<ele>707.417908</ele>
<time>2025-10-14T18:43:52.812Z</time>
</trkpt>
<trkpt lat="31.7310400" lon="35.0763090">
<ele>706.830994</ele>
<time>2025-10-14T18:43:56.133Z</time>
</trkpt>
<trkpt lat="31.7313060" lon="35.0759450">
<ele>705.078674</ele>
<time>2025-10-14T18:44:05.612Z</time>
</trkpt>
<trkpt lat="31.7317520" lon="35.0762270">
<ele>702.904724</ele>
<time>2025-10-14T18:44:17.453Z</time>
</trkpt>
<trkpt lat="31.7323190" lon="35.0762670">
<ele>701.856262</ele>
<time>2025-10-14T18:44:31.347Z</time>
</trkpt>
<trkpt lat="31.7328070" lon="35.0756190">
<ele>700.579956</ele>
<time>2025-10-14T18:44:52.128Z</time>
</trkpt>
<trkpt lat="31.7331510" lon="35.0751620">
<ele>699.680054</ele>
<time>2025-10-14T18:45:13.315Z</time>
</trkpt>
<trkpt lat="31.7331200" lon="35.0750910">
<ele>699.561035</ele>
<time>2025-10-14T18:45:18.012Z</time>
</trkpt>
<trkpt lat="31.7330500" lon="35.0750360">
<ele>699.413330</ele>
<time>2025-10-14T18:45:23.868Z</time>
</trkpt>
<trkpt lat="31.7331440" lon="35.0749820">
<ele>699.229736</ele>
<time>2025-10-14T18:45:26.513Z</time>
</trkpt>
<trkpt lat="31.7331820" lon="35.0749010">
<ele>699.091675</ele>
<time>2025-10-14T18:45:28.383Z</time>
</trkpt>
<trkpt lat="31.7331720" lon="35.0747810">
<ele>698.911743</ele>
<time>2025-10-14T18:45:30.614Z</time>
</trkpt>
<trkpt lat="31.7332550" lon="35.0745600">
<ele>698.551208</ele>
<time>2025-10-14T18:45:34.494Z</time>
</trkpt>
<trkpt lat="31.7334690" lon="35.0746920">
<ele>698.127197</ele>
<time>2025-10-14T18:45:51.301Z</time>
</trkpt>
<trkpt lat="31.7335950" lon="35.0743750">
<ele>697.605042</ele>
<time>2025-10-14T18:45:59.254Z</time>
</trkpt>
<trkpt lat="31.7338010" lon="35.0738550">
<ele>696.748962</ele>
<time>2025-10-14T18:46:11.449Z</time>
</trkpt>
<trkpt lat="31.7338850" lon="35.0734900">
<ele>696.523682</ele>
<time>2025-10-14T18:46:19.217Z</time>
</trkpt>
<trkpt lat="31.7340820" lon="35.0729590">
<ele>696.523682</ele>
<time>2025-10-14T18:46:31.109Z</time>
</trkpt>
<trkpt lat="31.7342130" lon="35.0726880">
<ele>696.523682</ele>
<time>2025-10-14T18:46:37.619Z</time>
</trkpt>
<trkpt lat="31.7343720" lon="35.0724410">
<ele>696.523682</ele>
<time>2025-10-14T18:46:44.205Z</time>
</trkpt>
<trkpt lat="31.7344740" lon="35.0722090">
<ele>696.523682</ele>
<time>2025-10-14T18:46:49.897Z</time>
</trkpt>
<trkpt lat="31.7346120" lon="35.0718020">
<ele>696.523682</ele>
<time>2025-10-14T18:46:57.518Z</time>
</trkpt>
<trkpt lat="31.7345950" lon="35.0717320">
<ele>696.523682</ele>
<time>2025-10-14T18:46:58.818Z</time>
</trkpt>
</trkseg>
</trk>
</gpx>
